<?xml version="1.0" encoding="UTF-8" standalone="no" ?>
<gpx xmlns="http://www.topografix.com/GPX/1/1" xmlns:xsi="http://www.w3.org/2001/XMLSchema-instance" xsi:schemaLocation="http://www.topografix.com/GPX/1/1 http://www.topografix.com/GPX/1/1/gpx.xsd" version="1.1" creator="VisuGPX - https://www.visugpx.com">
  <metadata>
    <name>Soupe aux choux St Cyr 2025</name>
    <desc><![CDATA[En association avec cmm et acp3c]]></desc>
  </metadata>
  <trk>
    <name><![CDATA[Soupe au chou 11/11/25-22800773]]></name>
    <extensions>
      <line xmlns="http://www.topografix.com/GPX/gpx_style/0/2">
        <color>0000FF</color>
        <width>4</width>
      </line>
    </extensions>
    <trkseg>
      <trkpt lat="45.67746" lon="4.30097">
        <ele>443</ele>
        <time>2025-11-02T14:03:07Z</time>
      </trkpt>
      <trkpt lat="45.67706" lon="4.30107">
        <ele>443</ele>
        <time>2025-11-02T14:03:40Z</time>
      </trkpt>
      <trkpt lat="45.67706" lon="4.30201">
        <ele>446</ele>
        <time>2025-11-02T14:04:32Z</time>
      </trkpt>
      <trkpt lat="45.67706" lon="4.30216">
        <ele>447</ele>
        <time>2025-11-02T14:04:40Z</time>
      </trkpt>
      <trkpt lat="45.6771" lon="4.30229">
        <ele>447</ele>
        <time>2025-11-02T14:04:48Z</time>
      </trkpt>
      <trkpt lat="45.67718" lon="4.30241">
        <ele>448</ele>
        <time>2025-11-02T14:04:58Z</time>
      </trkpt>
      <trkpt lat="45.67739" lon="4.30261">
        <ele>450</ele>
        <time>2025-11-02T14:05:18Z</time>
      </trkpt>
      <trkpt lat="45.67745" lon="4.3027">
        <ele>451</ele>
        <time>2025-11-02T14:05:25Z</time>
      </trkpt>
      <trkpt lat="45.67752" lon="4.30284">
        <ele>452</ele>
        <time>2025-11-02T14:05:35Z</time>
      </trkpt>
      <trkpt lat="45.67754" lon="4.30293">
        <ele>452</ele>
        <time>2025-11-02T14:05:40Z</time>
      </trkpt>
      <trkpt lat="45.67754" lon="4.30306">
        <ele>453</ele>
        <time>2025-11-02T14:05:47Z</time>
      </trkpt>
      <trkpt lat="45.67748" lon="4.30364">
        <ele>454</ele>
        <time>2025-11-02T14:06:20Z</time>
      </trkpt>
      <trkpt lat="45.67748" lon="4.30381">
        <ele>454</ele>
        <time>2025-11-02T14:06:29Z</time>
      </trkpt>
      <trkpt lat="45.67751" lon="4.30397">
        <ele>454</ele>
        <time>2025-11-02T14:06:39Z</time>
      </trkpt>
      <trkpt lat="45.67758" lon="4.3042">
        <ele>454</ele>
        <time>2025-11-02T14:06:53Z</time>
      </trkpt>
      <trkpt lat="45.67771" lon="4.30459">
        <ele>452</ele>
        <time>2025-11-02T14:07:17Z</time>
      </trkpt>
      <trkpt lat="45.67781" lon="4.30491">
        <ele>451</ele>
        <time>2025-11-02T14:07:36Z</time>
      </trkpt>
      <trkpt lat="45.67804" lon="4.30558">
        <ele>453</ele>
        <time>2025-11-02T14:08:18Z</time>
      </trkpt>
      <trkpt lat="45.67817" lon="4.30589">
        <ele>454</ele>
        <time>2025-11-02T14:08:38Z</time>
      </trkpt>
      <trkpt lat="45.67848" lon="4.30645">
        <ele>455</ele>
        <time>2025-11-02T14:09:18Z</time>
      </trkpt>
      <trkpt lat="45.6789" lon="4.30715">
        <ele>458</ele>
        <time>2025-11-02T14:10:10Z</time>
      </trkpt>
      <trkpt lat="45.67898" lon="4.3073">
        <ele>458</ele>
        <time>2025-11-02T14:10:21Z</time>
      </trkpt>
      <trkpt lat="45.67906" lon="4.30751">
        <ele>459</ele>
        <time>2025-11-02T14:10:34Z</time>
      </trkpt>
      <trkpt lat="45.67918" lon="4.30786">
        <ele>461</ele>
        <time>2025-11-02T14:10:56Z</time>
      </trkpt>
      <trkpt lat="45.67939" lon="4.30856">
        <ele>464</ele>
        <time>2025-11-02T14:11:38Z</time>
      </trkpt>
      <trkpt lat="45.67953" lon="4.30909">
        <ele>466</ele>
        <time>2025-11-02T14:12:10Z</time>
      </trkpt>
      <trkpt lat="45.67972" lon="4.30984">
        <ele>467</ele>
        <time>2025-11-02T14:12:55Z</time>
      </trkpt>
      <trkpt lat="45.67983" lon="4.31054">
        <ele>468</ele>
        <time>2025-11-02T14:13:35Z</time>
      </trkpt>
      <trkpt lat="45.67994" lon="4.31093">
        <ele>468</ele>
        <time>2025-11-02T14:13:58Z</time>
      </trkpt>
      <trkpt lat="45.68011" lon="4.31134">
        <ele>467</ele>
        <time>2025-11-02T14:14:25Z</time>
      </trkpt>
      <trkpt lat="45.68007" lon="4.3114">
        <ele>467</ele>
        <time>2025-11-02T14:14:30Z</time>
      </trkpt>
      <trkpt lat="45.68005" lon="4.31151">
        <ele>467</ele>
        <time>2025-11-02T14:14:36Z</time>
      </trkpt>
      <trkpt lat="45.67999" lon="4.31209">
        <ele>466</ele>
        <time>2025-11-02T14:15:09Z</time>
      </trkpt>
      <trkpt lat="45.67997" lon="4.31238">
        <ele>465</ele>
        <time>2025-11-02T14:15:25Z</time>
      </trkpt>
      <trkpt lat="45.67998" lon="4.31259">
        <ele>465</ele>
        <time>2025-11-02T14:15:37Z</time>
      </trkpt>
      <trkpt lat="45.68" lon="4.31276">
        <ele>466</ele>
        <time>2025-11-02T14:15:47Z</time>
      </trkpt>
      <trkpt lat="45.67996" lon="4.31333">
        <ele>464</ele>
        <time>2025-11-02T14:16:19Z</time>
      </trkpt>
      <trkpt lat="45.67994" lon="4.31348">
        <ele>464</ele>
        <time>2025-11-02T14:16:27Z</time>
      </trkpt>
      <trkpt lat="45.67989" lon="4.31362">
        <ele>463</ele>
        <time>2025-11-02T14:16:36Z</time>
      </trkpt>
      <trkpt lat="45.67964" lon="4.31404">
        <ele>459</ele>
        <time>2025-11-02T14:17:07Z</time>
      </trkpt>
      <trkpt lat="45.6796" lon="4.31414">
        <ele>458</ele>
        <time>2025-11-02T14:17:13Z</time>
      </trkpt>
      <trkpt lat="45.67955" lon="4.31427">
        <ele>456</ele>
        <time>2025-11-02T14:17:22Z</time>
      </trkpt>
      <trkpt lat="45.67954" lon="4.31437">
        <ele>456</ele>
        <time>2025-11-02T14:17:27Z</time>
      </trkpt>
      <trkpt lat="45.67954" lon="4.31442">
        <ele>456</ele>
        <time>2025-11-02T14:17:30Z</time>
      </trkpt>
      <trkpt lat="45.67957" lon="4.31456">
        <ele>456</ele>
        <time>2025-11-02T14:17:38Z</time>
      </trkpt>
      <trkpt lat="45.67968" lon="4.31502">
        <ele>457</ele>
        <time>2025-11-02T14:18:05Z</time>
      </trkpt>
      <trkpt lat="45.67968" lon="4.31512">
        <ele>457</ele>
        <time>2025-11-02T14:18:11Z</time>
      </trkpt>
      <trkpt lat="45.67965" lon="4.31547">
        <ele>455</ele>
        <time>2025-11-02T14:18:31Z</time>
      </trkpt>
      <trkpt lat="45.67966" lon="4.31552">
        <ele>455</ele>
        <time>2025-11-02T14:18:34Z</time>
      </trkpt>
      <trkpt lat="45.67968" lon="4.31557">
        <ele>455</ele>
        <time>2025-11-02T14:18:37Z</time>
      </trkpt>
      <trkpt lat="45.67975" lon="4.31563">
        <ele>456</ele>
        <time>2025-11-02T14:18:43Z</time>
      </trkpt>
      <trkpt lat="45.67983" lon="4.31566">
        <ele>458</ele>
        <time>2025-11-02T14:18:50Z</time>
      </trkpt>
      <trkpt lat="45.67991" lon="4.31572">
        <ele>459</ele>
        <time>2025-11-02T14:18:57Z</time>
      </trkpt>
      <trkpt lat="45.67996" lon="4.31579">
        <ele>460</ele>
        <time>2025-11-02T14:19:03Z</time>
      </trkpt>
      <trkpt lat="45.68" lon="4.31589">
        <ele>460</ele>
        <time>2025-11-02T14:19:09Z</time>
      </trkpt>
      <trkpt lat="45.68004" lon="4.31602">
        <ele>462</ele>
        <time>2025-11-02T14:19:17Z</time>
      </trkpt>
      <trkpt lat="45.68007" lon="4.31626">
        <ele>464</ele>
        <time>2025-11-02T14:19:31Z</time>
      </trkpt>
      <trkpt lat="45.68006" lon="4.31637">
        <ele>464</ele>
        <time>2025-11-02T14:19:37Z</time>
      </trkpt>
      <trkpt lat="45.68001" lon="4.31649">
        <ele>464</ele>
        <time>2025-11-02T14:19:45Z</time>
      </trkpt>
      <trkpt lat="45.67995" lon="4.31652">
        <ele>463</ele>
        <time>2025-11-02T14:19:50Z</time>
      </trkpt>
      <trkpt lat="45.67987" lon="4.31653">
        <ele>462</ele>
        <time>2025-11-02T14:19:56Z</time>
      </trkpt>
      <trkpt lat="45.67976" lon="4.31652">
        <ele>461</ele>
        <time>2025-11-02T14:20:05Z</time>
      </trkpt>
      <trkpt lat="45.67954" lon="4.31654">
        <ele>458</ele>
        <time>2025-11-02T14:20:23Z</time>
      </trkpt>
      <trkpt lat="45.67936" lon="4.31661">
        <ele>456</ele>
        <time>2025-11-02T14:20:38Z</time>
      </trkpt>
      <trkpt lat="45.6792" lon="4.31663">
        <ele>454</ele>
        <time>2025-11-02T14:20:51Z</time>
      </trkpt>
      <trkpt lat="45.67863" lon="4.31665">
        <ele>450</ele>
        <time>2025-11-02T14:21:36Z</time>
      </trkpt>
      <trkpt lat="45.67844" lon="4.31664">
        <ele>448</ele>
        <time>2025-11-02T14:21:52Z</time>
      </trkpt>
      <trkpt lat="45.67827" lon="4.31664">
        <ele>447</ele>
        <time>2025-11-02T14:22:05Z</time>
      </trkpt>
      <trkpt lat="45.67809" lon="4.31659">
        <ele>446</ele>
        <time>2025-11-02T14:22:20Z</time>
      </trkpt>
      <trkpt lat="45.67779" lon="4.31649">
        <ele>443</ele>
        <time>2025-11-02T14:22:45Z</time>
      </trkpt>
      <trkpt lat="45.67764" lon="4.3164">
        <ele>441</ele>
        <time>2025-11-02T14:22:58Z</time>
      </trkpt>
      <trkpt lat="45.67738" lon="4.31628">
        <ele>438</ele>
        <time>2025-11-02T14:23:19Z</time>
      </trkpt>
      <trkpt lat="45.6772" lon="4.31635">
        <ele>438</ele>
        <time>2025-11-02T14:23:34Z</time>
      </trkpt>
      <trkpt lat="45.67708" lon="4.31654">
        <ele>439</ele>
        <time>2025-11-02T14:23:49Z</time>
      </trkpt>
      <trkpt lat="45.67704" lon="4.31668">
        <ele>439</ele>
        <time>2025-11-02T14:23:57Z</time>
      </trkpt>
      <trkpt lat="45.67697" lon="4.31696">
        <ele>440</ele>
        <time>2025-11-02T14:24:14Z</time>
      </trkpt>
      <trkpt lat="45.67688" lon="4.31741">
        <ele>439</ele>
        <time>2025-11-02T14:24:40Z</time>
      </trkpt>
      <trkpt lat="45.67684" lon="4.31779">
        <ele>439</ele>
        <time>2025-11-02T14:25:01Z</time>
      </trkpt>
      <trkpt lat="45.67679" lon="4.31812">
        <ele>438</ele>
        <time>2025-11-02T14:25:20Z</time>
      </trkpt>
      <trkpt lat="45.67678" lon="4.31825">
        <ele>438</ele>
        <time>2025-11-02T14:25:28Z</time>
      </trkpt>
      <trkpt lat="45.67686" lon="4.31846">
        <ele>440</ele>
        <time>2025-11-02T14:25:41Z</time>
      </trkpt>
      <trkpt lat="45.67704" lon="4.31884">
        <ele>442</ele>
        <time>2025-11-02T14:26:07Z</time>
      </trkpt>
      <trkpt lat="45.67717" lon="4.31917">
        <ele>441</ele>
        <time>2025-11-02T14:26:28Z</time>
      </trkpt>
      <trkpt lat="45.67719" lon="4.3192">
        <ele>441</ele>
        <time>2025-11-02T14:26:30Z</time>
      </trkpt>
      <trkpt lat="45.67717" lon="4.31917">
        <ele>441</ele>
        <time>2025-11-02T14:26:33Z</time>
      </trkpt>
      <trkpt lat="45.67714" lon="4.31939">
        <ele>440</ele>
        <time>2025-11-02T14:26:45Z</time>
      </trkpt>
      <trkpt lat="45.6771" lon="4.31947">
        <ele>440</ele>
        <time>2025-11-02T14:26:51Z</time>
      </trkpt>
      <trkpt lat="45.67706" lon="4.31951">
        <ele>440</ele>
        <time>2025-11-02T14:26:55Z</time>
      </trkpt>
      <trkpt lat="45.67698" lon="4.31962">
        <ele>439</ele>
        <time>2025-11-02T14:27:03Z</time>
      </trkpt>
      <trkpt lat="45.67689" lon="4.31968">
        <ele>440</ele>
        <time>2025-11-02T14:27:11Z</time>
      </trkpt>
      <trkpt lat="45.67677" lon="4.31972">
        <ele>440</ele>
        <time>2025-11-02T14:27:21Z</time>
      </trkpt>
      <trkpt lat="45.67665" lon="4.31972">
        <ele>441</ele>
        <time>2025-11-02T14:27:31Z</time>
      </trkpt>
      <trkpt lat="45.6764" lon="4.31964">
        <ele>443</ele>
        <time>2025-11-02T14:27:51Z</time>
      </trkpt>
      <trkpt lat="45.67606" lon="4.31946">
        <ele>446</ele>
        <time>2025-11-02T14:28:20Z</time>
      </trkpt>
      <trkpt lat="45.67592" lon="4.3194">
        <ele>448</ele>
        <time>2025-11-02T14:28:32Z</time>
      </trkpt>
      <trkpt lat="45.67582" lon="4.31937">
        <ele>449</ele>
        <time>2025-11-02T14:28:40Z</time>
      </trkpt>
      <trkpt lat="45.67568" lon="4.31937">
        <ele>451</ele>
        <time>2025-11-02T14:28:51Z</time>
      </trkpt>
      <trkpt lat="45.67549" lon="4.31941">
        <ele>453</ele>
        <time>2025-11-02T14:29:07Z</time>
      </trkpt>
      <trkpt lat="45.67534" lon="4.31951">
        <ele>454</ele>
        <time>2025-11-02T14:29:20Z</time>
      </trkpt>
      <trkpt lat="45.67511" lon="4.3198">
        <ele>453</ele>
        <time>2025-11-02T14:29:45Z</time>
      </trkpt>
      <trkpt lat="45.67501" lon="4.31988">
        <ele>452</ele>
        <time>2025-11-02T14:29:54Z</time>
      </trkpt>
      <trkpt lat="45.67487" lon="4.31996">
        <ele>452</ele>
        <time>2025-11-02T14:30:06Z</time>
      </trkpt>
      <trkpt lat="45.67474" lon="4.32006">
        <ele>453</ele>
        <time>2025-11-02T14:30:18Z</time>
      </trkpt>
      <trkpt lat="45.67467" lon="4.32016">
        <ele>454</ele>
        <time>2025-11-02T14:30:26Z</time>
      </trkpt>
      <trkpt lat="45.67461" lon="4.32032">
        <ele>455</ele>
        <time>2025-11-02T14:30:36Z</time>
      </trkpt>
      <trkpt lat="45.6746" lon="4.3204">
        <ele>455</ele>
        <time>2025-11-02T14:30:40Z</time>
      </trkpt>
      <trkpt lat="45.67459" lon="4.32041">
        <ele>455</ele>
        <time>2025-11-02T14:30:41Z</time>
      </trkpt>
      <trkpt lat="45.67489" lon="4.32034">
        <ele>453</ele>
        <time>2025-11-02T14:31:06Z</time>
      </trkpt>
      <trkpt lat="45.67529" lon="4.32014">
        <ele>452</ele>
        <time>2025-11-02T14:31:40Z</time>
      </trkpt>
      <trkpt lat="45.67549" lon="4.32013">
        <ele>452</ele>
        <time>2025-11-02T14:31:56Z</time>
      </trkpt>
      <trkpt lat="45.67579" lon="4.32014">
        <ele>453</ele>
        <time>2025-11-02T14:32:20Z</time>
      </trkpt>
      <trkpt lat="45.67592" lon="4.32027">
        <ele>455</ele>
        <time>2025-11-02T14:32:32Z</time>
      </trkpt>
      <trkpt lat="45.67616" lon="4.32058">
        <ele>459</ele>
        <time>2025-11-02T14:32:58Z</time>
      </trkpt>
      <trkpt lat="45.67645" lon="4.32091">
        <ele>464</ele>
        <time>2025-11-02T14:33:28Z</time>
      </trkpt>
      <trkpt lat="45.67674" lon="4.32141">
        <ele>473</ele>
        <time>2025-11-02T14:34:04Z</time>
      </trkpt>
      <trkpt lat="45.67615" lon="4.32155">
        <ele>477</ele>
        <time>2025-11-02T14:34:52Z</time>
      </trkpt>
      <trkpt lat="45.67592" lon="4.32173">
        <ele>481</ele>
        <time>2025-11-02T14:35:13Z</time>
      </trkpt>
      <trkpt lat="45.67552" lon="4.32215">
        <ele>483</ele>
        <time>2025-11-02T14:35:53Z</time>
      </trkpt>
      <trkpt lat="45.67507" lon="4.32282">
        <ele>484</ele>
        <time>2025-11-02T14:36:45Z</time>
      </trkpt>
      <trkpt lat="45.67485" lon="4.32312">
        <ele>485</ele>
        <time>2025-11-02T14:37:09Z</time>
      </trkpt>
      <trkpt lat="45.67498" lon="4.32333">
        <ele>490</ele>
        <time>2025-11-02T14:37:25Z</time>
      </trkpt>
      <trkpt lat="45.67516" lon="4.32357">
        <ele>495</ele>
        <time>2025-11-02T14:37:45Z</time>
      </trkpt>
      <trkpt lat="45.67534" lon="4.32377">
        <ele>500</ele>
        <time>2025-11-02T14:38:03Z</time>
      </trkpt>
      <trkpt lat="45.67554" lon="4.32399">
        <ele>504</ele>
        <time>2025-11-02T14:38:23Z</time>
      </trkpt>
      <trkpt lat="45.67575" lon="4.32431">
        <ele>506</ele>
        <time>2025-11-02T14:38:48Z</time>
      </trkpt>
      <trkpt lat="45.67577" lon="4.32434">
        <ele>506</ele>
        <time>2025-11-02T14:38:50Z</time>
      </trkpt>
      <trkpt lat="45.67567" lon="4.32447">
        <ele>505</ele>
        <time>2025-11-02T14:39:01Z</time>
      </trkpt>
      <trkpt lat="45.67543" lon="4.32469">
        <ele>505</ele>
        <time>2025-11-02T14:39:23Z</time>
      </trkpt>
      <trkpt lat="45.67489" lon="4.32522">
        <ele>507</ele>
        <time>2025-11-02T14:40:16Z</time>
      </trkpt>
      <trkpt lat="45.67474" lon="4.32536">
        <ele>507</ele>
        <time>2025-11-02T14:40:30Z</time>
      </trkpt>
      <trkpt lat="45.67464" lon="4.32548">
        <ele>508</ele>
        <time>2025-11-02T14:40:41Z</time>
      </trkpt>
      <trkpt lat="45.67425" lon="4.32599">
        <ele>517</ele>
        <time>2025-11-02T14:41:23Z</time>
      </trkpt>
      <trkpt lat="45.67404" lon="4.32639">
        <ele>520</ele>
        <time>2025-11-02T14:41:51Z</time>
      </trkpt>
      <trkpt lat="45.67389" lon="4.3267">
        <ele>521</ele>
        <time>2025-11-02T14:42:12Z</time>
      </trkpt>
      <trkpt lat="45.67377" lon="4.32691">
        <ele>522</ele>
        <time>2025-11-02T14:42:27Z</time>
      </trkpt>
      <trkpt lat="45.67367" lon="4.32714">
        <ele>523</ele>
        <time>2025-11-02T14:42:42Z</time>
      </trkpt>
      <trkpt lat="45.67358" lon="4.32741">
        <ele>525</ele>
        <time>2025-11-02T14:42:59Z</time>
      </trkpt>
      <trkpt lat="45.67349" lon="4.32808">
        <ele>527</ele>
        <time>2025-11-02T14:43:37Z</time>
      </trkpt>
      <trkpt lat="45.67345" lon="4.32851">
        <ele>530</ele>
        <time>2025-11-02T14:44:02Z</time>
      </trkpt>
      <trkpt lat="45.67341" lon="4.32886">
        <ele>532</ele>
        <time>2025-11-02T14:44:21Z</time>
      </trkpt>
      <trkpt lat="45.67338" lon="4.32902">
        <ele>533</ele>
        <time>2025-11-02T14:44:31Z</time>
      </trkpt>
      <trkpt lat="45.67328" lon="4.3294">
        <ele>535</ele>
        <time>2025-11-02T14:44:53Z</time>
      </trkpt>
      <trkpt lat="45.67327" lon="4.32988">
        <ele>535</ele>
        <time>2025-11-02T14:45:20Z</time>
      </trkpt>
      <trkpt lat="45.67329" lon="4.33027">
        <ele>536</ele>
        <time>2025-11-02T14:45:42Z</time>
      </trkpt>
      <trkpt lat="45.67331" lon="4.33039">
        <ele>536</ele>
        <time>2025-11-02T14:45:49Z</time>
      </trkpt>
      <trkpt lat="45.67332" lon="4.33071">
        <ele>537</ele>
        <time>2025-11-02T14:46:07Z</time>
      </trkpt>
      <trkpt lat="45.67335" lon="4.33092">
        <ele>537</ele>
        <time>2025-11-02T14:46:19Z</time>
      </trkpt>
      <trkpt lat="45.67332" lon="4.33121">
        <ele>539</ele>
        <time>2025-11-02T14:46:35Z</time>
      </trkpt>
      <trkpt lat="45.67329" lon="4.33143">
        <ele>541</ele>
        <time>2025-11-02T14:46:48Z</time>
      </trkpt>
      <trkpt lat="45.67325" lon="4.33168">
        <ele>543</ele>
        <time>2025-11-02T14:47:02Z</time>
      </trkpt>
      <trkpt lat="45.67315" lon="4.33186">
        <ele>545</ele>
        <time>2025-11-02T14:47:15Z</time>
      </trkpt>
      <trkpt lat="45.67305" lon="4.3321">
        <ele>546</ele>
        <time>2025-11-02T14:47:31Z</time>
      </trkpt>
      <trkpt lat="45.67298" lon="4.3323">
        <ele>547</ele>
        <time>2025-11-02T14:47:43Z</time>
      </trkpt>
      <trkpt lat="45.67291" lon="4.33257">
        <ele>549</ele>
        <time>2025-11-02T14:47:59Z</time>
      </trkpt>
      <trkpt lat="45.67286" lon="4.33287">
        <ele>551</ele>
        <time>2025-11-02T14:48:17Z</time>
      </trkpt>
      <trkpt lat="45.67285" lon="4.33316">
        <ele>553</ele>
        <time>2025-11-02T14:48:33Z</time>
      </trkpt>
      <trkpt lat="45.67287" lon="4.33345">
        <ele>553</ele>
        <time>2025-11-02T14:48:49Z</time>
      </trkpt>
      <trkpt lat="45.67287" lon="4.33363">
        <ele>554</ele>
        <time>2025-11-02T14:48:59Z</time>
      </trkpt>
      <trkpt lat="45.67288" lon="4.33383">
        <ele>555</ele>
        <time>2025-11-02T14:49:10Z</time>
      </trkpt>
      <trkpt lat="45.67287" lon="4.33407">
        <ele>555</ele>
        <time>2025-11-02T14:49:24Z</time>
      </trkpt>
      <trkpt lat="45.67283" lon="4.33455">
        <ele>557</ele>
        <time>2025-11-02T14:49:51Z</time>
      </trkpt>
      <trkpt lat="45.67284" lon="4.33522">
        <ele>558</ele>
        <time>2025-11-02T14:50:28Z</time>
      </trkpt>
      <trkpt lat="45.67279" lon="4.33562">
        <ele>558</ele>
        <time>2025-11-02T14:50:51Z</time>
      </trkpt>
      <trkpt lat="45.67277" lon="4.33575">
        <ele>558</ele>
        <time>2025-11-02T14:50:59Z</time>
      </trkpt>
      <trkpt lat="45.67274" lon="4.33585">
        <ele>558</ele>
        <time>2025-11-02T14:51:05Z</time>
      </trkpt>
      <trkpt lat="45.67272" lon="4.3361">
        <ele>559</ele>
        <time>2025-11-02T14:51:19Z</time>
      </trkpt>
      <trkpt lat="45.6727" lon="4.33631">
        <ele>559</ele>
        <time>2025-11-02T14:51:31Z</time>
      </trkpt>
      <trkpt lat="45.6727" lon="4.33633">
        <ele>560</ele>
        <time>2025-11-02T14:51:32Z</time>
      </trkpt>
      <trkpt lat="45.67272" lon="4.33651">
        <ele>560</ele>
        <time>2025-11-02T14:51:42Z</time>
      </trkpt>
      <trkpt lat="45.6728" lon="4.33677">
        <ele>561</ele>
        <time>2025-11-02T14:51:58Z</time>
      </trkpt>
      <trkpt lat="45.6736" lon="4.33889">
        <ele>569</ele>
        <time>2025-11-02T14:54:13Z</time>
      </trkpt>
      <trkpt lat="45.6737" lon="4.33901">
        <ele>569</ele>
        <time>2025-11-02T14:54:23Z</time>
      </trkpt>
      <trkpt lat="45.67377" lon="4.33917">
        <ele>570</ele>
        <time>2025-11-02T14:54:34Z</time>
      </trkpt>
      <trkpt lat="45.67387" lon="4.33945">
        <ele>570</ele>
        <time>2025-11-02T14:54:51Z</time>
      </trkpt>
      <trkpt lat="45.67396" lon="4.3398">
        <ele>571</ele>
        <time>2025-11-02T14:55:12Z</time>
      </trkpt>
      <trkpt lat="45.67402" lon="4.34009">
        <ele>572</ele>
        <time>2025-11-02T14:55:29Z</time>
      </trkpt>
      <trkpt lat="45.67408" lon="4.34059">
        <ele>573</ele>
        <time>2025-11-02T14:55:57Z</time>
      </trkpt>
      <trkpt lat="45.67409" lon="4.34092">
        <ele>574</ele>
        <time>2025-11-02T14:56:16Z</time>
      </trkpt>
      <trkpt lat="45.67408" lon="4.34107">
        <ele>575</ele>
        <time>2025-11-02T14:56:24Z</time>
      </trkpt>
      <trkpt lat="45.67405" lon="4.34125">
        <ele>576</ele>
        <time>2025-11-02T14:56:35Z</time>
      </trkpt>
      <trkpt lat="45.67407" lon="4.34134">
        <ele>576</ele>
        <time>2025-11-02T14:56:40Z</time>
      </trkpt>
      <trkpt lat="45.67407" lon="4.34146">
        <ele>577</ele>
        <time>2025-11-02T14:56:47Z</time>
      </trkpt>
      <trkpt lat="45.67402" lon="4.34196">
        <ele>579</ele>
        <time>2025-11-02T14:57:15Z</time>
      </trkpt>
      <trkpt lat="45.67402" lon="4.34217">
        <ele>581</ele>
        <time>2025-11-02T14:57:27Z</time>
      </trkpt>
      <trkpt lat="45.67403" lon="4.34265">
        <ele>584</ele>
        <time>2025-11-02T14:57:54Z</time>
      </trkpt>
      <trkpt lat="45.67414" lon="4.34359">
        <ele>588</ele>
        <time>2025-11-02T14:58:47Z</time>
      </trkpt>
      <trkpt lat="45.67415" lon="4.34382">
        <ele>589</ele>
        <time>2025-11-02T14:59:00Z</time>
      </trkpt>
      <trkpt lat="45.67413" lon="4.34404">
        <ele>590</ele>
        <time>2025-11-02T14:59:12Z</time>
      </trkpt>
      <trkpt lat="45.67412" lon="4.34434">
        <ele>592</ele>
        <time>2025-11-02T14:59:29Z</time>
      </trkpt>
      <trkpt lat="45.67416" lon="4.34473">
        <ele>594</ele>
        <time>2025-11-02T14:59:51Z</time>
      </trkpt>
      <trkpt lat="45.67429" lon="4.34553">
        <ele>595</ele>
        <time>2025-11-02T15:00:37Z</time>
      </trkpt>
      <trkpt lat="45.67439" lon="4.34639">
        <ele>598</ele>
        <time>2025-11-02T15:01:26Z</time>
      </trkpt>
      <trkpt lat="45.67454" lon="4.34708">
        <ele>598</ele>
        <time>2025-11-02T15:02:06Z</time>
      </trkpt>
      <trkpt lat="45.67467" lon="4.34748">
        <ele>599</ele>
        <time>2025-11-02T15:02:31Z</time>
      </trkpt>
      <trkpt lat="45.67479" lon="4.34791">
        <ele>596</ele>
        <time>2025-11-02T15:02:57Z</time>
      </trkpt>
      <trkpt lat="45.6748" lon="4.34805">
        <ele>596</ele>
        <time>2025-11-02T15:03:05Z</time>
      </trkpt>
      <trkpt lat="45.67484" lon="4.34805">
        <ele>596</ele>
        <time>2025-11-02T15:03:08Z</time>
      </trkpt>
      <trkpt lat="45.6748" lon="4.34805">
        <ele>596</ele>
        <time>2025-11-02T15:03:11Z</time>
      </trkpt>
      <trkpt lat="45.67482" lon="4.3481">
        <ele>595</ele>
        <time>2025-11-02T15:03:14Z</time>
      </trkpt>
      <trkpt lat="45.67481" lon="4.34818">
        <ele>595</ele>
        <time>2025-11-02T15:03:19Z</time>
      </trkpt>
      <trkpt lat="45.67468" lon="4.3488">
        <ele>590</ele>
        <time>2025-11-02T15:03:55Z</time>
      </trkpt>
      <trkpt lat="45.67469" lon="4.34892">
        <ele>588</ele>
        <time>2025-11-02T15:04:02Z</time>
      </trkpt>
      <trkpt lat="45.6748" lon="4.34946">
        <ele>582</ele>
        <time>2025-11-02T15:04:33Z</time>
      </trkpt>
      <trkpt lat="45.67473" lon="4.35">
        <ele>575</ele>
        <time>2025-11-02T15:05:04Z</time>
      </trkpt>
      <trkpt lat="45.67472" lon="4.35018">
        <ele>573</ele>
        <time>2025-11-02T15:05:14Z</time>
      </trkpt>
      <trkpt lat="45.67472" lon="4.35033">
        <ele>572</ele>
        <time>2025-11-02T15:05:23Z</time>
      </trkpt>
      <trkpt lat="45.67471" lon="4.35057">
        <ele>569</ele>
        <time>2025-11-02T15:05:36Z</time>
      </trkpt>
      <trkpt lat="45.67466" lon="4.35081">
        <ele>567</ele>
        <time>2025-11-02T15:05:50Z</time>
      </trkpt>
      <trkpt lat="45.67467" lon="4.35121">
        <ele>562</ele>
        <time>2025-11-02T15:06:12Z</time>
      </trkpt>
      <trkpt lat="45.6747" lon="4.3514">
        <ele>560</ele>
        <time>2025-11-02T15:06:23Z</time>
      </trkpt>
      <trkpt lat="45.67473" lon="4.35159">
        <ele>558</ele>
        <time>2025-11-02T15:06:34Z</time>
      </trkpt>
      <trkpt lat="45.67476" lon="4.35184">
        <ele>556</ele>
        <time>2025-11-02T15:06:48Z</time>
      </trkpt>
      <trkpt lat="45.67476" lon="4.352">
        <ele>555</ele>
        <time>2025-11-02T15:06:57Z</time>
      </trkpt>
      <trkpt lat="45.67473" lon="4.35209">
        <ele>555</ele>
        <time>2025-11-02T15:07:03Z</time>
      </trkpt>
      <trkpt lat="45.67455" lon="4.35236">
        <ele>555</ele>
        <time>2025-11-02T15:07:24Z</time>
      </trkpt>
      <trkpt lat="45.67452" lon="4.35244">
        <ele>555</ele>
        <time>2025-11-02T15:07:29Z</time>
      </trkpt>
      <trkpt lat="45.67456" lon="4.35254">
        <ele>554</ele>
        <time>2025-11-02T15:07:35Z</time>
      </trkpt>
      <trkpt lat="45.67464" lon="4.35266">
        <ele>554</ele>
        <time>2025-11-02T15:07:45Z</time>
      </trkpt>
      <trkpt lat="45.6747" lon="4.35285">
        <ele>553</ele>
        <time>2025-11-02T15:07:56Z</time>
      </trkpt>
      <trkpt lat="45.67469" lon="4.35311">
        <ele>554</ele>
        <time>2025-11-02T15:08:11Z</time>
      </trkpt>
      <trkpt lat="45.67461" lon="4.35331">
        <ele>555</ele>
        <time>2025-11-02T15:08:24Z</time>
      </trkpt>
      <trkpt lat="45.67456" lon="4.35353">
        <ele>558</ele>
        <time>2025-11-02T15:08:37Z</time>
      </trkpt>
      <trkpt lat="45.67443" lon="4.35377">
        <ele>561</ele>
        <time>2025-11-02T15:08:54Z</time>
      </trkpt>
      <trkpt lat="45.67439" lon="4.35396">
        <ele>562</ele>
        <time>2025-11-02T15:09:05Z</time>
      </trkpt>
      <trkpt lat="45.6744" lon="4.35406">
        <ele>562</ele>
        <time>2025-11-02T15:09:10Z</time>
      </trkpt>
      <trkpt lat="45.67448" lon="4.35408">
        <ele>562</ele>
        <time>2025-11-02T15:09:17Z</time>
      </trkpt>
      <trkpt lat="45.67465" lon="4.35407">
        <ele>560</ele>
        <time>2025-11-02T15:09:31Z</time>
      </trkpt>
      <trkpt lat="45.67494" lon="4.35414">
        <ele>559</ele>
        <time>2025-11-02T15:09:54Z</time>
      </trkpt>
      <trkpt lat="45.67525" lon="4.35422">
        <ele>559</ele>
        <time>2025-11-02T15:10:19Z</time>
      </trkpt>
      <trkpt lat="45.6755" lon="4.35429">
        <ele>559</ele>
        <time>2025-11-02T15:10:40Z</time>
      </trkpt>
      <trkpt lat="45.67558" lon="4.35434">
        <ele>559</ele>
        <time>2025-11-02T15:10:47Z</time>
      </trkpt>
      <trkpt lat="45.67594" lon="4.35467">
        <ele>562</ele>
        <time>2025-11-02T15:11:21Z</time>
      </trkpt>
      <trkpt lat="45.67604" lon="4.3548">
        <ele>564</ele>
        <time>2025-11-02T15:11:32Z</time>
      </trkpt>
      <trkpt lat="45.67617" lon="4.35504">
        <ele>566</ele>
        <time>2025-11-02T15:11:49Z</time>
      </trkpt>
      <trkpt lat="45.67624" lon="4.35516">
        <ele>567</ele>
        <time>2025-11-02T15:11:57Z</time>
      </trkpt>
      <trkpt lat="45.67631" lon="4.35523">
        <ele>567</ele>
        <time>2025-11-02T15:12:04Z</time>
      </trkpt>
      <trkpt lat="45.67634" lon="4.35528">
        <ele>567</ele>
        <time>2025-11-02T15:12:08Z</time>
      </trkpt>
      <trkpt lat="45.67635" lon="4.35539">
        <ele>569</ele>
        <time>2025-11-02T15:12:14Z</time>
      </trkpt>
      <trkpt lat="45.6764" lon="4.35593">
        <ele>574</ele>
        <time>2025-11-02T15:12:45Z</time>
      </trkpt>
      <trkpt lat="45.67642" lon="4.35607">
        <ele>574</ele>
        <time>2025-11-02T15:12:53Z</time>
      </trkpt>
      <trkpt lat="45.67647" lon="4.3562">
        <ele>574</ele>
        <time>2025-11-02T15:13:01Z</time>
      </trkpt>
      <trkpt lat="45.67651" lon="4.35628">
        <ele>574</ele>
        <time>2025-11-02T15:13:06Z</time>
      </trkpt>
      <trkpt lat="45.67648" lon="4.3563">
        <ele>574</ele>
        <time>2025-11-02T15:13:09Z</time>
      </trkpt>
      <trkpt lat="45.67449" lon="4.3569">
        <ele>588</ele>
        <time>2025-11-02T15:15:52Z</time>
      </trkpt>
      <trkpt lat="45.67361" lon="4.35695">
        <ele>592</ele>
        <time>2025-11-02T15:17:02Z</time>
      </trkpt>
      <trkpt lat="45.67297" lon="4.35659">
        <ele>598</ele>
        <time>2025-11-02T15:17:58Z</time>
      </trkpt>
      <trkpt lat="45.67267" lon="4.35662">
        <ele>602</ele>
        <time>2025-11-02T15:18:22Z</time>
      </trkpt>
      <trkpt lat="45.6725" lon="4.35659">
        <ele>603</ele>
        <time>2025-11-02T15:18:35Z</time>
      </trkpt>
      <trkpt lat="45.67152" lon="4.35705">
        <ele>614</ele>
        <time>2025-11-02T15:19:58Z</time>
      </trkpt>
      <trkpt lat="45.67073" lon="4.3576">
        <ele>625</ele>
        <time>2025-11-02T15:21:08Z</time>
      </trkpt>
      <trkpt lat="45.6698" lon="4.3585">
        <ele>643</ele>
        <time>2025-11-02T15:22:38Z</time>
      </trkpt>
      <trkpt lat="45.6698" lon="4.35841">
        <ele>643</ele>
        <time>2025-11-02T15:22:43Z</time>
      </trkpt>
      <trkpt lat="45.66979" lon="4.35818">
        <ele>643</ele>
        <time>2025-11-02T15:22:56Z</time>
      </trkpt>
      <trkpt lat="45.66977" lon="4.35797">
        <ele>643</ele>
        <time>2025-11-02T15:23:08Z</time>
      </trkpt>
      <trkpt lat="45.66975" lon="4.35786">
        <ele>643</ele>
        <time>2025-11-02T15:23:14Z</time>
      </trkpt>
      <trkpt lat="45.6697" lon="4.35773">
        <ele>644</ele>
        <time>2025-11-02T15:23:23Z</time>
      </trkpt>
      <trkpt lat="45.66949" lon="4.35737">
        <ele>646</ele>
        <time>2025-11-02T15:23:49Z</time>
      </trkpt>
      <trkpt lat="45.66925" lon="4.35692">
        <ele>647</ele>
        <time>2025-11-02T15:24:20Z</time>
      </trkpt>
      <trkpt lat="45.66915" lon="4.35661">
        <ele>646</ele>
        <time>2025-11-02T15:24:40Z</time>
      </trkpt>
      <trkpt lat="45.66913" lon="4.35633">
        <ele>645</ele>
        <time>2025-11-02T15:24:55Z</time>
      </trkpt>
      <trkpt lat="45.66908" lon="4.35603">
        <ele>644</ele>
        <time>2025-11-02T15:25:13Z</time>
      </trkpt>
      <trkpt lat="45.66905" lon="4.35597">
        <ele>644</ele>
        <time>2025-11-02T15:25:17Z</time>
      </trkpt>
      <trkpt lat="45.66892" lon="4.35529">
        <ele>645</ele>
        <time>2025-11-02T15:25:56Z</time>
      </trkpt>
      <trkpt lat="45.66883" lon="4.35498">
        <ele>646</ele>
        <time>2025-11-02T15:26:15Z</time>
      </trkpt>
      <trkpt lat="45.66874" lon="4.35456">
        <ele>644</ele>
        <time>2025-11-02T15:26:40Z</time>
      </trkpt>
      <trkpt lat="45.6687" lon="4.35415">
        <ele>643</ele>
        <time>2025-11-02T15:27:03Z</time>
      </trkpt>
      <trkpt lat="45.66861" lon="4.35355">
        <ele>640</ele>
        <time>2025-11-02T15:27:37Z</time>
      </trkpt>
      <trkpt lat="45.66857" lon="4.35336">
        <ele>640</ele>
        <time>2025-11-02T15:27:48Z</time>
      </trkpt>
      <trkpt lat="45.6685" lon="4.35324">
        <ele>640</ele>
        <time>2025-11-02T15:27:57Z</time>
      </trkpt>
      <trkpt lat="45.66841" lon="4.35315">
        <ele>640</ele>
        <time>2025-11-02T15:28:06Z</time>
      </trkpt>
      <trkpt lat="45.66831" lon="4.3531">
        <ele>641</ele>
        <time>2025-11-02T15:28:14Z</time>
      </trkpt>
      <trkpt lat="45.66772" lon="4.35295">
        <ele>640</ele>
        <time>2025-11-02T15:29:02Z</time>
      </trkpt>
      <trkpt lat="45.66764" lon="4.35292">
        <ele>640</ele>
        <time>2025-11-02T15:29:09Z</time>
      </trkpt>
      <trkpt lat="45.66739" lon="4.35277">
        <ele>640</ele>
        <time>2025-11-02T15:29:30Z</time>
      </trkpt>
      <trkpt lat="45.66711" lon="4.35255">
        <ele>639</ele>
        <time>2025-11-02T15:29:56Z</time>
      </trkpt>
      <trkpt lat="45.66696" lon="4.35241">
        <ele>639</ele>
        <time>2025-11-02T15:30:10Z</time>
      </trkpt>
      <trkpt lat="45.6664" lon="4.35183">
        <ele>638</ele>
        <time>2025-11-02T15:31:06Z</time>
      </trkpt>
      <trkpt lat="45.66626" lon="4.35171">
        <ele>638</ele>
        <time>2025-11-02T15:31:19Z</time>
      </trkpt>
      <trkpt lat="45.66608" lon="4.35159">
        <ele>637</ele>
        <time>2025-11-02T15:31:35Z</time>
      </trkpt>
      <trkpt lat="45.66594" lon="4.35152">
        <ele>636</ele>
        <time>2025-11-02T15:31:47Z</time>
      </trkpt>
      <trkpt lat="45.66574" lon="4.35145">
        <ele>635</ele>
        <time>2025-11-02T15:32:03Z</time>
      </trkpt>
      <trkpt lat="45.66538" lon="4.35137">
        <ele>632</ele>
        <time>2025-11-02T15:32:32Z</time>
      </trkpt>
      <trkpt lat="45.66526" lon="4.35137">
        <ele>632</ele>
        <time>2025-11-02T15:32:42Z</time>
      </trkpt>
      <trkpt lat="45.66516" lon="4.35138">
        <ele>631</ele>
        <time>2025-11-02T15:32:50Z</time>
      </trkpt>
      <trkpt lat="45.66503" lon="4.35144">
        <ele>631</ele>
        <time>2025-11-02T15:33:01Z</time>
      </trkpt>
      <trkpt lat="45.66482" lon="4.3515">
        <ele>631</ele>
        <time>2025-11-02T15:33:18Z</time>
      </trkpt>
      <trkpt lat="45.66475" lon="4.3515">
        <ele>630</ele>
        <time>2025-11-02T15:33:24Z</time>
      </trkpt>
      <trkpt lat="45.66469" lon="4.35149">
        <ele>630</ele>
        <time>2025-11-02T15:33:28Z</time>
      </trkpt>
      <trkpt lat="45.6646" lon="4.35145">
        <ele>629</ele>
        <time>2025-11-02T15:33:36Z</time>
      </trkpt>
      <trkpt lat="45.66418" lon="4.35164">
        <ele>628</ele>
        <time>2025-11-02T15:34:11Z</time>
      </trkpt>
      <trkpt lat="45.66405" lon="4.35165">
        <ele>628</ele>
        <time>2025-11-02T15:34:22Z</time>
      </trkpt>
      <trkpt lat="45.66388" lon="4.35161">
        <ele>627</ele>
        <time>2025-11-02T15:34:35Z</time>
      </trkpt>
      <trkpt lat="45.66387" lon="4.35169">
        <ele>627</ele>
        <time>2025-11-02T15:34:40Z</time>
      </trkpt>
      <trkpt lat="45.66383" lon="4.35214">
        <ele>625</ele>
        <time>2025-11-02T15:35:05Z</time>
      </trkpt>
      <trkpt lat="45.66386" lon="4.35259">
        <ele>622</ele>
        <time>2025-11-02T15:35:31Z</time>
      </trkpt>
      <trkpt lat="45.66402" lon="4.35396">
        <ele>611</ele>
        <time>2025-11-02T15:36:48Z</time>
      </trkpt>
      <trkpt lat="45.66395" lon="4.35408">
        <ele>610</ele>
        <time>2025-11-02T15:36:57Z</time>
      </trkpt>
      <trkpt lat="45.66327" lon="4.35477">
        <ele>602</ele>
        <time>2025-11-02T15:38:04Z</time>
      </trkpt>
      <trkpt lat="45.66316" lon="4.35493">
        <ele>600</ele>
        <time>2025-11-02T15:38:16Z</time>
      </trkpt>
      <trkpt lat="45.66302" lon="4.35511">
        <ele>597</ele>
        <time>2025-11-02T15:38:31Z</time>
      </trkpt>
      <trkpt lat="45.66278" lon="4.35528">
        <ele>594</ele>
        <time>2025-11-02T15:38:53Z</time>
      </trkpt>
      <trkpt lat="45.66279" lon="4.35531">
        <ele>594</ele>
        <time>2025-11-02T15:38:55Z</time>
      </trkpt>
      <trkpt lat="45.66243" lon="4.35539">
        <ele>591</ele>
        <time>2025-11-02T15:39:24Z</time>
      </trkpt>
      <trkpt lat="45.66243" lon="4.35537">
        <ele>592</ele>
        <time>2025-11-02T15:39:25Z</time>
      </trkpt>
      <trkpt lat="45.66241" lon="4.35518">
        <ele>593</ele>
        <time>2025-11-02T15:39:36Z</time>
      </trkpt>
      <trkpt lat="45.66228" lon="4.35507">
        <ele>593</ele>
        <time>2025-11-02T15:39:48Z</time>
      </trkpt>
      <trkpt lat="45.66215" lon="4.35507">
        <ele>593</ele>
        <time>2025-11-02T15:39:58Z</time>
      </trkpt>
      <trkpt lat="45.66195" lon="4.35499">
        <ele>593</ele>
        <time>2025-11-02T15:40:15Z</time>
      </trkpt>
      <trkpt lat="45.66157" lon="4.35475">
        <ele>596</ele>
        <time>2025-11-02T15:40:48Z</time>
      </trkpt>
      <trkpt lat="45.66147" lon="4.35465">
        <ele>596</ele>
        <time>2025-11-02T15:40:58Z</time>
      </trkpt>
      <trkpt lat="45.66134" lon="4.35437">
        <ele>600</ele>
        <time>2025-11-02T15:41:17Z</time>
      </trkpt>
      <trkpt lat="45.66113" lon="4.35384">
        <ele>605</ele>
        <time>2025-11-02T15:41:51Z</time>
      </trkpt>
      <trkpt lat="45.66125" lon="4.35406">
        <ele>604</ele>
        <time>2025-11-02T15:42:06Z</time>
      </trkpt>
      <trkpt lat="45.66113" lon="4.35384">
        <ele>605</ele>
        <time>2025-11-02T15:42:22Z</time>
      </trkpt>
      <trkpt lat="45.66101" lon="4.35364">
        <ele>607</ele>
        <time>2025-11-02T15:42:37Z</time>
      </trkpt>
      <trkpt lat="45.66072" lon="4.35313">
        <ele>611</ele>
        <time>2025-11-02T15:43:14Z</time>
      </trkpt>
      <trkpt lat="45.66064" lon="4.35296">
        <ele>612</ele>
        <time>2025-11-02T15:43:25Z</time>
      </trkpt>
      <trkpt lat="45.66057" lon="4.35277">
        <ele>613</ele>
        <time>2025-11-02T15:43:37Z</time>
      </trkpt>
      <trkpt lat="45.66051" lon="4.35254">
        <ele>614</ele>
        <time>2025-11-02T15:43:51Z</time>
      </trkpt>
      <trkpt lat="45.66048" lon="4.35236">
        <ele>615</ele>
        <time>2025-11-02T15:44:01Z</time>
      </trkpt>
      <trkpt lat="45.66048" lon="4.35218">
        <ele>615</ele>
        <time>2025-11-02T15:44:11Z</time>
      </trkpt>
      <trkpt lat="45.66049" lon="4.35205">
        <ele>616</ele>
        <time>2025-11-02T15:44:19Z</time>
      </trkpt>
      <trkpt lat="45.66046" lon="4.35199">
        <ele>616</ele>
        <time>2025-11-02T15:44:23Z</time>
      </trkpt>
      <trkpt lat="45.66042" lon="4.35171">
        <ele>616</ele>
        <time>2025-11-02T15:44:39Z</time>
      </trkpt>
      <trkpt lat="45.66037" lon="4.3516">
        <ele>615</ele>
        <time>2025-11-02T15:44:46Z</time>
      </trkpt>
      <trkpt lat="45.66035" lon="4.35156">
        <ele>615</ele>
        <time>2025-11-02T15:44:49Z</time>
      </trkpt>
      <trkpt lat="45.66025" lon="4.35148">
        <ele>614</ele>
        <time>2025-11-02T15:44:58Z</time>
      </trkpt>
      <trkpt lat="45.6602" lon="4.35143">
        <ele>613</ele>
        <time>2025-11-02T15:45:03Z</time>
      </trkpt>
      <trkpt lat="45.66014" lon="4.35137">
        <ele>612</ele>
        <time>2025-11-02T15:45:09Z</time>
      </trkpt>
      <trkpt lat="45.66008" lon="4.35125">
        <ele>612</ele>
        <time>2025-11-02T15:45:17Z</time>
      </trkpt>
      <trkpt lat="45.65998" lon="4.35079">
        <ele>611</ele>
        <time>2025-11-02T15:45:44Z</time>
      </trkpt>
      <trkpt lat="45.6599" lon="4.35063">
        <ele>609</ele>
        <time>2025-11-02T15:45:55Z</time>
      </trkpt>
      <trkpt lat="45.65982" lon="4.35054">
        <ele>608</ele>
        <time>2025-11-02T15:46:03Z</time>
      </trkpt>
      <trkpt lat="45.65965" lon="4.35041">
        <ele>606</ele>
        <time>2025-11-02T15:46:19Z</time>
      </trkpt>
      <trkpt lat="45.65952" lon="4.3503">
        <ele>604</ele>
        <time>2025-11-02T15:46:31Z</time>
      </trkpt>
      <trkpt lat="45.65935" lon="4.35015">
        <ele>603</ele>
        <time>2025-11-02T15:46:47Z</time>
      </trkpt>
      <trkpt lat="45.65928" lon="4.35006">
        <ele>602</ele>
        <time>2025-11-02T15:46:54Z</time>
      </trkpt>
      <trkpt lat="45.65916" lon="4.34987">
        <ele>600</ele>
        <time>2025-11-02T15:47:09Z</time>
      </trkpt>
      <trkpt lat="45.65895" lon="4.34955">
        <ele>597</ele>
        <time>2025-11-02T15:47:33Z</time>
      </trkpt>
      <trkpt lat="45.65889" lon="4.34948">
        <ele>596</ele>
        <time>2025-11-02T15:47:39Z</time>
      </trkpt>
      <trkpt lat="45.6588" lon="4.34943">
        <ele>595</ele>
        <time>2025-11-02T15:47:47Z</time>
      </trkpt>
      <trkpt lat="45.65863" lon="4.34935">
        <ele>593</ele>
        <time>2025-11-02T15:48:01Z</time>
      </trkpt>
      <trkpt lat="45.6586" lon="4.34935">
        <ele>593</ele>
        <time>2025-11-02T15:48:04Z</time>
      </trkpt>
      <trkpt lat="45.65854" lon="4.34846">
        <ele>585</ele>
        <time>2025-11-02T15:48:54Z</time>
      </trkpt>
      <trkpt lat="45.65857" lon="4.34739">
        <ele>570</ele>
        <time>2025-11-02T15:49:54Z</time>
      </trkpt>
      <trkpt lat="45.65843" lon="4.34686">
        <ele>562</ele>
        <time>2025-11-02T15:50:25Z</time>
      </trkpt>
      <trkpt lat="45.6581" lon="4.34628">
        <ele>554</ele>
        <time>2025-11-02T15:51:07Z</time>
      </trkpt>
      <trkpt lat="45.65752" lon="4.34587">
        <ele>546</ele>
        <time>2025-11-02T15:51:59Z</time>
      </trkpt>
      <trkpt lat="45.65663" lon="4.34568">
        <ele>536</ele>
        <time>2025-11-02T15:53:11Z</time>
      </trkpt>
      <trkpt lat="45.65388" lon="4.34324">
        <ele>533</ele>
        <time>2025-11-02T15:57:30Z</time>
      </trkpt>
      <trkpt lat="45.65359" lon="4.34305">
        <ele>533</ele>
        <time>2025-11-02T15:57:56Z</time>
      </trkpt>
      <trkpt lat="45.65337" lon="4.34295">
        <ele>531</ele>
        <time>2025-11-02T15:58:14Z</time>
      </trkpt>
      <trkpt lat="45.653" lon="4.3423">
        <ele>536</ele>
        <time>2025-11-02T15:59:01Z</time>
      </trkpt>
      <trkpt lat="45.65278" lon="4.3416">
        <ele>544</ele>
        <time>2025-11-02T15:59:44Z</time>
      </trkpt>
      <trkpt lat="45.65251" lon="4.34116">
        <ele>545</ele>
        <time>2025-11-02T16:00:17Z</time>
      </trkpt>
      <trkpt lat="45.65201" lon="4.3409">
        <ele>546</ele>
        <time>2025-11-02T16:00:59Z</time>
      </trkpt>
      <trkpt lat="45.65148" lon="4.33996">
        <ele>554</ele>
        <time>2025-11-02T16:02:07Z</time>
      </trkpt>
      <trkpt lat="45.65115" lon="4.33928">
        <ele>561</ele>
        <time>2025-11-02T16:02:53Z</time>
      </trkpt>
      <trkpt lat="45.65088" lon="4.33928">
        <ele>558</ele>
        <time>2025-11-02T16:03:15Z</time>
      </trkpt>
      <trkpt lat="45.65041" lon="4.33888">
        <ele>560</ele>
        <time>2025-11-02T16:03:59Z</time>
      </trkpt>
      <trkpt lat="45.65038" lon="4.33885">
        <ele>560</ele>
        <time>2025-11-02T16:04:02Z</time>
      </trkpt>
      <trkpt lat="45.6507" lon="4.33883">
        <ele>561</ele>
        <time>2025-11-02T16:04:27Z</time>
      </trkpt>
      <trkpt lat="45.6509" lon="4.33879">
        <ele>562</ele>
        <time>2025-11-02T16:04:44Z</time>
      </trkpt>
      <trkpt lat="45.65098" lon="4.33877">
        <ele>563</ele>
        <time>2025-11-02T16:04:50Z</time>
      </trkpt>
      <trkpt lat="45.65114" lon="4.33868">
        <ele>564</ele>
        <time>2025-11-02T16:05:04Z</time>
      </trkpt>
      <trkpt lat="45.6513" lon="4.33855">
        <ele>566</ele>
        <time>2025-11-02T16:05:19Z</time>
      </trkpt>
      <trkpt lat="45.65151" lon="4.33832">
        <ele>569</ele>
        <time>2025-11-02T16:05:40Z</time>
      </trkpt>
      <trkpt lat="45.65166" lon="4.33817">
        <ele>569</ele>
        <time>2025-11-02T16:05:54Z</time>
      </trkpt>
      <trkpt lat="45.65208" lon="4.33784">
        <ele>571</ele>
        <time>2025-11-02T16:06:33Z</time>
      </trkpt>
      <trkpt lat="45.65235" lon="4.33763">
        <ele>573</ele>
        <time>2025-11-02T16:06:57Z</time>
      </trkpt>
      <trkpt lat="45.65268" lon="4.33732">
        <ele>574</ele>
        <time>2025-11-02T16:07:29Z</time>
      </trkpt>
      <trkpt lat="45.65289" lon="4.33718">
        <ele>575</ele>
        <time>2025-11-02T16:07:48Z</time>
      </trkpt>
      <trkpt lat="45.65296" lon="4.33712">
        <ele>576</ele>
        <time>2025-11-02T16:07:54Z</time>
      </trkpt>
      <trkpt lat="45.65325" lon="4.33684">
        <ele>577</ele>
        <time>2025-11-02T16:08:22Z</time>
      </trkpt>
      <trkpt lat="45.65344" lon="4.33662">
        <ele>576</ele>
        <time>2025-11-02T16:08:42Z</time>
      </trkpt>
      <trkpt lat="45.65359" lon="4.33648">
        <ele>575</ele>
        <time>2025-11-02T16:08:56Z</time>
      </trkpt>
      <trkpt lat="45.65365" lon="4.33644">
        <ele>575</ele>
        <time>2025-11-02T16:09:01Z</time>
      </trkpt>
      <trkpt lat="45.65378" lon="4.33638">
        <ele>575</ele>
        <time>2025-11-02T16:09:12Z</time>
      </trkpt>
      <trkpt lat="45.65393" lon="4.33636">
        <ele>576</ele>
        <time>2025-11-02T16:09:24Z</time>
      </trkpt>
      <trkpt lat="45.65401" lon="4.33636">
        <ele>577</ele>
        <time>2025-11-02T16:09:31Z</time>
      </trkpt>
      <trkpt lat="45.65422" lon="4.33639">
        <ele>580</ele>
        <time>2025-11-02T16:09:48Z</time>
      </trkpt>
      <trkpt lat="45.65434" lon="4.33643">
        <ele>581</ele>
        <time>2025-11-02T16:09:57Z</time>
      </trkpt>
      <trkpt lat="45.65459" lon="4.33655">
        <ele>583</ele>
        <time>2025-11-02T16:10:19Z</time>
      </trkpt>
      <trkpt lat="45.65502" lon="4.3368">
        <ele>587</ele>
        <time>2025-11-02T16:10:56Z</time>
      </trkpt>
      <trkpt lat="45.65517" lon="4.33687">
        <ele>589</ele>
        <time>2025-11-02T16:11:08Z</time>
      </trkpt>
      <trkpt lat="45.65535" lon="4.33694">
        <ele>590</ele>
        <time>2025-11-02T16:11:23Z</time>
      </trkpt>
      <trkpt lat="45.65557" lon="4.33697">
        <ele>591</ele>
        <time>2025-11-02T16:11:41Z</time>
      </trkpt>
      <trkpt lat="45.65581" lon="4.33695">
        <ele>592</ele>
        <time>2025-11-02T16:12:00Z</time>
      </trkpt>
      <trkpt lat="45.65597" lon="4.3369">
        <ele>592</ele>
        <time>2025-11-02T16:12:13Z</time>
      </trkpt>
      <trkpt lat="45.65624" lon="4.33675">
        <ele>593</ele>
        <time>2025-11-02T16:12:37Z</time>
      </trkpt>
      <trkpt lat="45.65634" lon="4.33671">
        <ele>594</ele>
        <time>2025-11-02T16:12:45Z</time>
      </trkpt>
      <trkpt lat="45.65675" lon="4.33661">
        <ele>597</ele>
        <time>2025-11-02T16:13:18Z</time>
      </trkpt>
      <trkpt lat="45.65715" lon="4.33655">
        <ele>599</ele>
        <time>2025-11-02T16:13:50Z</time>
      </trkpt>
      <trkpt lat="45.65751" lon="4.33804">
        <ele>606</ele>
        <time>2025-11-02T16:15:19Z</time>
      </trkpt>
      <trkpt lat="45.6575" lon="4.33811">
        <ele>607</ele>
        <time>2025-11-02T16:15:23Z</time>
      </trkpt>
      <trkpt lat="45.65749" lon="4.33815">
        <ele>607</ele>
        <time>2025-11-02T16:15:25Z</time>
      </trkpt>
      <trkpt lat="45.65752" lon="4.33842">
        <ele>608</ele>
        <time>2025-11-02T16:15:40Z</time>
      </trkpt>
      <trkpt lat="45.65752" lon="4.33851">
        <ele>608</ele>
        <time>2025-11-02T16:15:45Z</time>
      </trkpt>
      <trkpt lat="45.65751" lon="4.33863">
        <ele>608</ele>
        <time>2025-11-02T16:15:52Z</time>
      </trkpt>
      <trkpt lat="45.65744" lon="4.33909">
        <ele>607</ele>
        <time>2025-11-02T16:16:18Z</time>
      </trkpt>
      <trkpt lat="45.65744" lon="4.33909">
        <ele>607</ele>
        <time>2025-11-02T16:16:18Z</time>
      </trkpt>
      <trkpt lat="45.65778" lon="4.33917">
        <ele>610</ele>
        <time>2025-11-02T16:16:46Z</time>
      </trkpt>
      <trkpt lat="45.65792" lon="4.33919">
        <ele>611</ele>
        <time>2025-11-02T16:16:57Z</time>
      </trkpt>
      <trkpt lat="45.65814" lon="4.33918">
        <ele>614</ele>
        <time>2025-11-02T16:17:15Z</time>
      </trkpt>
      <trkpt lat="45.65821" lon="4.3392">
        <ele>614</ele>
        <time>2025-11-02T16:17:21Z</time>
      </trkpt>
      <trkpt lat="45.65831" lon="4.3393">
        <ele>615</ele>
        <time>2025-11-02T16:17:30Z</time>
      </trkpt>
      <trkpt lat="45.65838" lon="4.33933">
        <ele>615</ele>
        <time>2025-11-02T16:17:36Z</time>
      </trkpt>
      <trkpt lat="45.65874" lon="4.33939">
        <ele>615</ele>
        <time>2025-11-02T16:18:05Z</time>
      </trkpt>
      <trkpt lat="45.65905" lon="4.33938">
        <ele>616</ele>
        <time>2025-11-02T16:18:30Z</time>
      </trkpt>
      <trkpt lat="45.65918" lon="4.33935">
        <ele>616</ele>
        <time>2025-11-02T16:18:41Z</time>
      </trkpt>
      <trkpt lat="45.65949" lon="4.33919">
        <ele>615</ele>
        <time>2025-11-02T16:19:07Z</time>
      </trkpt>
      <trkpt lat="45.65965" lon="4.33914">
        <ele>615</ele>
        <time>2025-11-02T16:19:20Z</time>
      </trkpt>
      <trkpt lat="45.66005" lon="4.33908">
        <ele>613</ele>
        <time>2025-11-02T16:19:52Z</time>
      </trkpt>
      <trkpt lat="45.66035" lon="4.33902">
        <ele>612</ele>
        <time>2025-11-02T16:20:17Z</time>
      </trkpt>
      <trkpt lat="45.66067" lon="4.33902">
        <ele>612</ele>
        <time>2025-11-02T16:20:42Z</time>
      </trkpt>
      <trkpt lat="45.66099" lon="4.33908">
        <ele>613</ele>
        <time>2025-11-02T16:21:08Z</time>
      </trkpt>
      <trkpt lat="45.66105" lon="4.33904">
        <ele>613</ele>
        <time>2025-11-02T16:21:13Z</time>
      </trkpt>
      <trkpt lat="45.6615" lon="4.33882">
        <ele>613</ele>
        <time>2025-11-02T16:21:51Z</time>
      </trkpt>
      <trkpt lat="45.66169" lon="4.33876">
        <ele>613</ele>
        <time>2025-11-02T16:22:07Z</time>
      </trkpt>
      <trkpt lat="45.6618" lon="4.33872">
        <ele>613</ele>
        <time>2025-11-02T16:22:16Z</time>
      </trkpt>
      <trkpt lat="45.66209" lon="4.33856">
        <ele>612</ele>
        <time>2025-11-02T16:22:41Z</time>
      </trkpt>
      <trkpt lat="45.66225" lon="4.33846">
        <ele>612</ele>
        <time>2025-11-02T16:22:55Z</time>
      </trkpt>
      <trkpt lat="45.66279" lon="4.33808">
        <ele>610</ele>
        <time>2025-11-02T16:23:43Z</time>
      </trkpt>
      <trkpt lat="45.66289" lon="4.33801">
        <ele>610</ele>
        <time>2025-11-02T16:23:52Z</time>
      </trkpt>
      <trkpt lat="45.66292" lon="4.33796">
        <ele>610</ele>
        <time>2025-11-02T16:23:56Z</time>
      </trkpt>
      <trkpt lat="45.66331" lon="4.33761">
        <ele>611</ele>
        <time>2025-11-02T16:24:33Z</time>
      </trkpt>
      <trkpt lat="45.66356" lon="4.33741">
        <ele>607</ele>
        <time>2025-11-02T16:24:55Z</time>
      </trkpt>
      <trkpt lat="45.66388" lon="4.33716">
        <ele>602</ele>
        <time>2025-11-02T16:25:25Z</time>
      </trkpt>
      <trkpt lat="45.66401" lon="4.3371">
        <ele>600</ele>
        <time>2025-11-02T16:25:36Z</time>
      </trkpt>
      <trkpt lat="45.66413" lon="4.33711">
        <ele>599</ele>
        <time>2025-11-02T16:25:45Z</time>
      </trkpt>
      <trkpt lat="45.66425" lon="4.33716">
        <ele>597</ele>
        <time>2025-11-02T16:25:55Z</time>
      </trkpt>
      <trkpt lat="45.66462" lon="4.33728">
        <ele>590</ele>
        <time>2025-11-02T16:26:26Z</time>
      </trkpt>
      <trkpt lat="45.66479" lon="4.33735">
        <ele>587</ele>
        <time>2025-11-02T16:26:40Z</time>
      </trkpt>
      <trkpt lat="45.66486" lon="4.33734">
        <ele>586</ele>
        <time>2025-11-02T16:26:45Z</time>
      </trkpt>
      <trkpt lat="45.66496" lon="4.33726">
        <ele>583</ele>
        <time>2025-11-02T16:26:55Z</time>
      </trkpt>
      <trkpt lat="45.66517" lon="4.33708">
        <ele>576</ele>
        <time>2025-11-02T16:27:14Z</time>
      </trkpt>
      <trkpt lat="45.66526" lon="4.33698">
        <ele>573</ele>
        <time>2025-11-02T16:27:23Z</time>
      </trkpt>
      <trkpt lat="45.66533" lon="4.33678">
        <ele>571</ele>
        <time>2025-11-02T16:27:36Z</time>
      </trkpt>
      <trkpt lat="45.66543" lon="4.33649">
        <ele>567</ele>
        <time>2025-11-02T16:27:54Z</time>
      </trkpt>
      <trkpt lat="45.6655" lon="4.33621">
        <ele>565</ele>
        <time>2025-11-02T16:28:11Z</time>
      </trkpt>
      <trkpt lat="45.66551" lon="4.3361">
        <ele>564</ele>
        <time>2025-11-02T16:28:17Z</time>
      </trkpt>
      <trkpt lat="45.66548" lon="4.33586">
        <ele>564</ele>
        <time>2025-11-02T16:28:30Z</time>
      </trkpt>
      <trkpt lat="45.66544" lon="4.33567">
        <ele>565</ele>
        <time>2025-11-02T16:28:42Z</time>
      </trkpt>
      <trkpt lat="45.66547" lon="4.33526">
        <ele>564</ele>
        <time>2025-11-02T16:29:05Z</time>
      </trkpt>
      <trkpt lat="45.66555" lon="4.3345">
        <ele>562</ele>
        <time>2025-11-02T16:29:48Z</time>
      </trkpt>
      <trkpt lat="45.66556" lon="4.33368">
        <ele>560</ele>
        <time>2025-11-02T16:30:33Z</time>
      </trkpt>
      <trkpt lat="45.66554" lon="4.33332">
        <ele>558</ele>
        <time>2025-11-02T16:30:54Z</time>
      </trkpt>
      <trkpt lat="45.66559" lon="4.33324">
        <ele>558</ele>
        <time>2025-11-02T16:31:00Z</time>
      </trkpt>
      <trkpt lat="45.66564" lon="4.33313">
        <ele>557</ele>
        <time>2025-11-02T16:31:07Z</time>
      </trkpt>
      <trkpt lat="45.66593" lon="4.33345">
        <ele>557</ele>
        <time>2025-11-02T16:31:36Z</time>
      </trkpt>
      <trkpt lat="45.66622" lon="4.33373">
        <ele>555</ele>
        <time>2025-11-02T16:32:04Z</time>
      </trkpt>
      <trkpt lat="45.66639" lon="4.3339">
        <ele>554</ele>
        <time>2025-11-02T16:32:21Z</time>
      </trkpt>
      <trkpt lat="45.66654" lon="4.33402">
        <ele>553</ele>
        <time>2025-11-02T16:32:35Z</time>
      </trkpt>
      <trkpt lat="45.66659" lon="4.3341">
        <ele>553</ele>
        <time>2025-11-02T16:32:41Z</time>
      </trkpt>
      <trkpt lat="45.66664" lon="4.33422">
        <ele>552</ele>
        <time>2025-11-02T16:32:49Z</time>
      </trkpt>
      <trkpt lat="45.66667" lon="4.33439">
        <ele>550</ele>
        <time>2025-11-02T16:32:58Z</time>
      </trkpt>
      <trkpt lat="45.66666" lon="4.33452">
        <ele>549</ele>
        <time>2025-11-02T16:33:06Z</time>
      </trkpt>
      <trkpt lat="45.66663" lon="4.33459">
        <ele>549</ele>
        <time>2025-11-02T16:33:10Z</time>
      </trkpt>
      <trkpt lat="45.66641" lon="4.33497">
        <ele>549</ele>
        <time>2025-11-02T16:33:38Z</time>
      </trkpt>
      <trkpt lat="45.6664" lon="4.33509">
        <ele>549</ele>
        <time>2025-11-02T16:33:45Z</time>
      </trkpt>
      <trkpt lat="45.66641" lon="4.3352">
        <ele>548</ele>
        <time>2025-11-02T16:33:51Z</time>
      </trkpt>
      <trkpt lat="45.6665" lon="4.33545">
        <ele>544</ele>
        <time>2025-11-02T16:34:07Z</time>
      </trkpt>
      <trkpt lat="45.6666" lon="4.3357">
        <ele>540</ele>
        <time>2025-11-02T16:34:23Z</time>
      </trkpt>
      <trkpt lat="45.66664" lon="4.33585">
        <ele>538</ele>
        <time>2025-11-02T16:34:32Z</time>
      </trkpt>
      <trkpt lat="45.66666" lon="4.33636">
        <ele>536</ele>
        <time>2025-11-02T16:35:00Z</time>
      </trkpt>
      <trkpt lat="45.66668" lon="4.33685">
        <ele>536</ele>
        <time>2025-11-02T16:35:28Z</time>
      </trkpt>
      <trkpt lat="45.6667" lon="4.33687">
        <ele>536</ele>
        <time>2025-11-02T16:35:30Z</time>
      </trkpt>
      <trkpt lat="45.66673" lon="4.33685">
        <ele>536</ele>
        <time>2025-11-02T16:35:32Z</time>
      </trkpt>
      <trkpt lat="45.66685" lon="4.33672">
        <ele>535</ele>
        <time>2025-11-02T16:35:44Z</time>
      </trkpt>
      <trkpt lat="45.66695" lon="4.33665">
        <ele>535</ele>
        <time>2025-11-02T16:35:53Z</time>
      </trkpt>
      <trkpt lat="45.66705" lon="4.33665">
        <ele>535</ele>
        <time>2025-11-02T16:36:01Z</time>
      </trkpt>
      <trkpt lat="45.66714" lon="4.33669">
        <ele>536</ele>
        <time>2025-11-02T16:36:09Z</time>
      </trkpt>
      <trkpt lat="45.66736" lon="4.33685">
        <ele>537</ele>
        <time>2025-11-02T16:36:29Z</time>
      </trkpt>
      <trkpt lat="45.66744" lon="4.33694">
        <ele>538</ele>
        <time>2025-11-02T16:36:37Z</time>
      </trkpt>
      <trkpt lat="45.66752" lon="4.33709">
        <ele>539</ele>
        <time>2025-11-02T16:36:47Z</time>
      </trkpt>
      <trkpt lat="45.66759" lon="4.33725">
        <ele>541</ele>
        <time>2025-11-02T16:36:58Z</time>
      </trkpt>
      <trkpt lat="45.66768" lon="4.33742">
        <ele>544</ele>
        <time>2025-11-02T16:37:10Z</time>
      </trkpt>
      <trkpt lat="45.66781" lon="4.33753">
        <ele>546</ele>
        <time>2025-11-02T16:37:22Z</time>
      </trkpt>
      <trkpt lat="45.66798" lon="4.33769">
        <ele>549</ele>
        <time>2025-11-02T16:37:38Z</time>
      </trkpt>
      <trkpt lat="45.66872" lon="4.33781">
        <ele>549</ele>
        <time>2025-11-02T16:38:38Z</time>
      </trkpt>
      <trkpt lat="45.6687" lon="4.33775">
        <ele>549</ele>
        <time>2025-11-02T16:38:42Z</time>
      </trkpt>
      <trkpt lat="45.66862" lon="4.33727">
        <ele>547</ele>
        <time>2025-11-02T16:39:09Z</time>
      </trkpt>
      <trkpt lat="45.66867" lon="4.33704">
        <ele>545</ele>
        <time>2025-11-02T16:39:23Z</time>
      </trkpt>
      <trkpt lat="45.66881" lon="4.33651">
        <ele>539</ele>
        <time>2025-11-02T16:39:54Z</time>
      </trkpt>
      <trkpt lat="45.66884" lon="4.3363">
        <ele>537</ele>
        <time>2025-11-02T16:40:06Z</time>
      </trkpt>
      <trkpt lat="45.66886" lon="4.33614">
        <ele>535</ele>
        <time>2025-11-02T16:40:15Z</time>
      </trkpt>
      <trkpt lat="45.66886" lon="4.33596">
        <ele>533</ele>
        <time>2025-11-02T16:40:26Z</time>
      </trkpt>
      <trkpt lat="45.66884" lon="4.3357">
        <ele>530</ele>
        <time>2025-11-02T16:40:40Z</time>
      </trkpt>
      <trkpt lat="45.66873" lon="4.33512">
        <ele>523</ele>
        <time>2025-11-02T16:41:14Z</time>
      </trkpt>
      <trkpt lat="45.6687" lon="4.33476">
        <ele>519</ele>
        <time>2025-11-02T16:41:34Z</time>
      </trkpt>
      <trkpt lat="45.66872" lon="4.33459">
        <ele>517</ele>
        <time>2025-11-02T16:41:44Z</time>
      </trkpt>
      <trkpt lat="45.66875" lon="4.33442">
        <ele>515</ele>
        <time>2025-11-02T16:41:54Z</time>
      </trkpt>
      <trkpt lat="45.6688" lon="4.33406">
        <ele>512</ele>
        <time>2025-11-02T16:42:14Z</time>
      </trkpt>
      <trkpt lat="45.66884" lon="4.33389">
        <ele>512</ele>
        <time>2025-11-02T16:42:24Z</time>
      </trkpt>
      <trkpt lat="45.66896" lon="4.33352">
        <ele>509</ele>
        <time>2025-11-02T16:42:47Z</time>
      </trkpt>
      <trkpt lat="45.6691" lon="4.33327">
        <ele>507</ele>
        <time>2025-11-02T16:43:05Z</time>
      </trkpt>
      <trkpt lat="45.66915" lon="4.33314">
        <ele>506</ele>
        <time>2025-11-02T16:43:13Z</time>
      </trkpt>
      <trkpt lat="45.66918" lon="4.33301">
        <ele>506</ele>
        <time>2025-11-02T16:43:21Z</time>
      </trkpt>
      <trkpt lat="45.66921" lon="4.33235">
        <ele>507</ele>
        <time>2025-11-02T16:43:58Z</time>
      </trkpt>
      <trkpt lat="45.66922" lon="4.33213">
        <ele>506</ele>
        <time>2025-11-02T16:44:10Z</time>
      </trkpt>
      <trkpt lat="45.66922" lon="4.33197">
        <ele>505</ele>
        <time>2025-11-02T16:44:19Z</time>
      </trkpt>
      <trkpt lat="45.6692" lon="4.33174">
        <ele>504</ele>
        <time>2025-11-02T16:44:32Z</time>
      </trkpt>
      <trkpt lat="45.66913" lon="4.33101">
        <ele>501</ele>
        <time>2025-11-02T16:45:13Z</time>
      </trkpt>
      <trkpt lat="45.6691" lon="4.33091">
        <ele>501</ele>
        <time>2025-11-02T16:45:19Z</time>
      </trkpt>
      <trkpt lat="45.66903" lon="4.33069">
        <ele>500</ele>
        <time>2025-11-02T16:45:33Z</time>
      </trkpt>
      <trkpt lat="45.669" lon="4.33058">
        <ele>500</ele>
        <time>2025-11-02T16:45:40Z</time>
      </trkpt>
      <trkpt lat="45.66896" lon="4.33033">
        <ele>499</ele>
        <time>2025-11-02T16:45:54Z</time>
      </trkpt>
      <trkpt lat="45.66895" lon="4.33004">
        <ele>497</ele>
        <time>2025-11-02T16:46:10Z</time>
      </trkpt>
      <trkpt lat="45.66897" lon="4.32989">
        <ele>496</ele>
        <time>2025-11-02T16:46:19Z</time>
      </trkpt>
      <trkpt lat="45.66905" lon="4.32967">
        <ele>494</ele>
        <time>2025-11-02T16:46:33Z</time>
      </trkpt>
      <trkpt lat="45.66919" lon="4.32935">
        <ele>491</ele>
        <time>2025-11-02T16:46:54Z</time>
      </trkpt>
      <trkpt lat="45.66929" lon="4.32908">
        <ele>491</ele>
        <time>2025-11-02T16:47:11Z</time>
      </trkpt>
      <trkpt lat="45.66938" lon="4.3289">
        <ele>491</ele>
        <time>2025-11-02T16:47:23Z</time>
      </trkpt>
      <trkpt lat="45.66951" lon="4.32869">
        <ele>492</ele>
        <time>2025-11-02T16:47:39Z</time>
      </trkpt>
      <trkpt lat="45.66968" lon="4.32843">
        <ele>490</ele>
        <time>2025-11-02T16:47:59Z</time>
      </trkpt>
      <trkpt lat="45.66987" lon="4.32822">
        <ele>489</ele>
        <time>2025-11-02T16:48:18Z</time>
      </trkpt>
      <trkpt lat="45.67002" lon="4.32807">
        <ele>488</ele>
        <time>2025-11-02T16:48:33Z</time>
      </trkpt>
      <trkpt lat="45.67016" lon="4.32795">
        <ele>489</ele>
        <time>2025-11-02T16:48:46Z</time>
      </trkpt>
      <trkpt lat="45.6703" lon="4.32778">
        <ele>488</ele>
        <time>2025-11-02T16:49:00Z</time>
      </trkpt>
      <trkpt lat="45.6704" lon="4.32759">
        <ele>486</ele>
        <time>2025-11-02T16:49:14Z</time>
      </trkpt>
      <trkpt lat="45.6706" lon="4.32727">
        <ele>485</ele>
        <time>2025-11-02T16:49:38Z</time>
      </trkpt>
      <trkpt lat="45.6707" lon="4.3271">
        <ele>484</ele>
        <time>2025-11-02T16:49:50Z</time>
      </trkpt>
      <trkpt lat="45.67076" lon="4.32695">
        <ele>484</ele>
        <time>2025-11-02T16:50:00Z</time>
      </trkpt>
      <trkpt lat="45.67085" lon="4.32676">
        <ele>482</ele>
        <time>2025-11-02T16:50:13Z</time>
      </trkpt>
      <trkpt lat="45.67115" lon="4.32637">
        <ele>485</ele>
        <time>2025-11-02T16:50:45Z</time>
      </trkpt>
      <trkpt lat="45.67133" lon="4.32604">
        <ele>485</ele>
        <time>2025-11-02T16:51:09Z</time>
      </trkpt>
      <trkpt lat="45.67138" lon="4.32582">
        <ele>484</ele>
        <time>2025-11-02T16:51:21Z</time>
      </trkpt>
      <trkpt lat="45.67139" lon="4.32568">
        <ele>484</ele>
        <time>2025-11-02T16:51:29Z</time>
      </trkpt>
      <trkpt lat="45.67139" lon="4.32542">
        <ele>483</ele>
        <time>2025-11-02T16:51:44Z</time>
      </trkpt>
      <trkpt lat="45.6714" lon="4.32526">
        <ele>483</ele>
        <time>2025-11-02T16:51:53Z</time>
      </trkpt>
      <trkpt lat="45.67149" lon="4.32504">
        <ele>479</ele>
        <time>2025-11-02T16:52:07Z</time>
      </trkpt>
      <trkpt lat="45.6716" lon="4.32484">
        <ele>475</ele>
        <time>2025-11-02T16:52:21Z</time>
      </trkpt>
      <trkpt lat="45.67184" lon="4.32445">
        <ele>472</ele>
        <time>2025-11-02T16:52:50Z</time>
      </trkpt>
      <trkpt lat="45.67202" lon="4.32421">
        <ele>470</ele>
        <time>2025-11-02T16:53:10Z</time>
      </trkpt>
      <trkpt lat="45.67224" lon="4.32397">
        <ele>470</ele>
        <time>2025-11-02T16:53:32Z</time>
      </trkpt>
      <trkpt lat="45.67239" lon="4.32381">
        <ele>470</ele>
        <time>2025-11-02T16:53:47Z</time>
      </trkpt>
      <trkpt lat="45.6725" lon="4.32367">
        <ele>469</ele>
        <time>2025-11-02T16:53:59Z</time>
      </trkpt>
      <trkpt lat="45.67262" lon="4.32347">
        <ele>469</ele>
        <time>2025-11-02T16:54:14Z</time>
      </trkpt>
      <trkpt lat="45.67273" lon="4.32332">
        <ele>468</ele>
        <time>2025-11-02T16:54:26Z</time>
      </trkpt>
      <trkpt lat="45.67285" lon="4.32321">
        <ele>469</ele>
        <time>2025-11-02T16:54:37Z</time>
      </trkpt>
      <trkpt lat="45.67305" lon="4.32286">
        <ele>469</ele>
        <time>2025-11-02T16:55:03Z</time>
      </trkpt>
      <trkpt lat="45.67314" lon="4.32274">
        <ele>467</ele>
        <time>2025-11-02T16:55:13Z</time>
      </trkpt>
      <trkpt lat="45.67342" lon="4.32251">
        <ele>462</ele>
        <time>2025-11-02T16:55:38Z</time>
      </trkpt>
      <trkpt lat="45.67363" lon="4.3224">
        <ele>463</ele>
        <time>2025-11-02T16:55:56Z</time>
      </trkpt>
      <trkpt lat="45.67376" lon="4.32227">
        <ele>464</ele>
        <time>2025-11-02T16:56:09Z</time>
      </trkpt>
      <trkpt lat="45.67439" lon="4.32112">
        <ele>459</ele>
        <time>2025-11-02T16:57:31Z</time>
      </trkpt>
      <trkpt lat="45.67445" lon="4.32101">
        <ele>458</ele>
        <time>2025-11-02T16:57:39Z</time>
      </trkpt>
      <trkpt lat="45.6745" lon="4.32087">
        <ele>458</ele>
        <time>2025-11-02T16:57:47Z</time>
      </trkpt>
      <trkpt lat="45.67455" lon="4.32075">
        <ele>457</ele>
        <time>2025-11-02T16:57:55Z</time>
      </trkpt>
      <trkpt lat="45.67458" lon="4.32059">
        <ele>456</ele>
        <time>2025-11-02T16:58:04Z</time>
      </trkpt>
      <trkpt lat="45.67459" lon="4.32041">
        <ele>455</ele>
        <time>2025-11-02T16:58:15Z</time>
      </trkpt>
      <trkpt lat="45.67461" lon="4.32032">
        <ele>455</ele>
        <time>2025-11-02T16:58:20Z</time>
      </trkpt>
      <trkpt lat="45.67467" lon="4.32016">
        <ele>454</ele>
        <time>2025-11-02T16:58:30Z</time>
      </trkpt>
      <trkpt lat="45.67474" lon="4.32006">
        <ele>453</ele>
        <time>2025-11-02T16:58:38Z</time>
      </trkpt>
      <trkpt lat="45.67487" lon="4.31996">
        <ele>452</ele>
        <time>2025-11-02T16:58:50Z</time>
      </trkpt>
      <trkpt lat="45.67501" lon="4.31988">
        <ele>452</ele>
        <time>2025-11-02T16:59:02Z</time>
      </trkpt>
      <trkpt lat="45.67511" lon="4.3198">
        <ele>453</ele>
        <time>2025-11-02T16:59:11Z</time>
      </trkpt>
      <trkpt lat="45.67534" lon="4.31951">
        <ele>454</ele>
        <time>2025-11-02T16:59:36Z</time>
      </trkpt>
      <trkpt lat="45.67549" lon="4.31941">
        <ele>453</ele>
        <time>2025-11-02T16:59:49Z</time>
      </trkpt>
      <trkpt lat="45.67568" lon="4.31937">
        <ele>451</ele>
        <time>2025-11-02T17:00:04Z</time>
      </trkpt>
      <trkpt lat="45.67582" lon="4.31937">
        <ele>449</ele>
        <time>2025-11-02T17:00:15Z</time>
      </trkpt>
      <trkpt lat="45.67592" lon="4.3194">
        <ele>448</ele>
        <time>2025-11-02T17:00:24Z</time>
      </trkpt>
      <trkpt lat="45.67606" lon="4.31946">
        <ele>446</ele>
        <time>2025-11-02T17:00:35Z</time>
      </trkpt>
      <trkpt lat="45.6764" lon="4.31964">
        <ele>443</ele>
        <time>2025-11-02T17:01:04Z</time>
      </trkpt>
      <trkpt lat="45.67665" lon="4.31972">
        <ele>441</ele>
        <time>2025-11-02T17:01:25Z</time>
      </trkpt>
      <trkpt lat="45.67677" lon="4.31972">
        <ele>440</ele>
        <time>2025-11-02T17:01:34Z</time>
      </trkpt>
      <trkpt lat="45.67689" lon="4.31968">
        <ele>440</ele>
        <time>2025-11-02T17:01:44Z</time>
      </trkpt>
      <trkpt lat="45.67698" lon="4.31962">
        <ele>439</ele>
        <time>2025-11-02T17:01:52Z</time>
      </trkpt>
      <trkpt lat="45.67706" lon="4.31951">
        <ele>440</ele>
        <time>2025-11-02T17:02:01Z</time>
      </trkpt>
      <trkpt lat="45.67706" lon="4.3194">
        <ele>440</ele>
        <time>2025-11-02T17:02:07Z</time>
      </trkpt>
      <trkpt lat="45.67704" lon="4.31888">
        <ele>441</ele>
        <time>2025-11-02T17:02:36Z</time>
      </trkpt>
      <trkpt lat="45.67704" lon="4.31884">
        <ele>442</ele>
        <time>2025-11-02T17:02:39Z</time>
      </trkpt>
      <trkpt lat="45.67686" lon="4.31846">
        <ele>440</ele>
        <time>2025-11-02T17:03:04Z</time>
      </trkpt>
      <trkpt lat="45.67678" lon="4.31825">
        <ele>438</ele>
        <time>2025-11-02T17:03:18Z</time>
      </trkpt>
      <trkpt lat="45.67679" lon="4.31812">
        <ele>438</ele>
        <time>2025-11-02T17:03:25Z</time>
      </trkpt>
      <trkpt lat="45.67684" lon="4.31779">
        <ele>439</ele>
        <time>2025-11-02T17:03:44Z</time>
      </trkpt>
      <trkpt lat="45.67688" lon="4.31741">
        <ele>439</ele>
        <time>2025-11-02T17:04:05Z</time>
      </trkpt>
      <trkpt lat="45.67697" lon="4.31696">
        <ele>440</ele>
        <time>2025-11-02T17:04:32Z</time>
      </trkpt>
      <trkpt lat="45.67704" lon="4.31668">
        <ele>439</ele>
        <time>2025-11-02T17:04:48Z</time>
      </trkpt>
      <trkpt lat="45.67708" lon="4.31654">
        <ele>439</ele>
        <time>2025-11-02T17:04:57Z</time>
      </trkpt>
      <trkpt lat="45.6772" lon="4.31635">
        <ele>438</ele>
        <time>2025-11-02T17:05:11Z</time>
      </trkpt>
      <trkpt lat="45.67738" lon="4.31628">
        <ele>438</ele>
        <time>2025-11-02T17:05:26Z</time>
      </trkpt>
      <trkpt lat="45.67764" lon="4.3164">
        <ele>441</ele>
        <time>2025-11-02T17:05:48Z</time>
      </trkpt>
      <trkpt lat="45.67779" lon="4.31649">
        <ele>443</ele>
        <time>2025-11-02T17:06:01Z</time>
      </trkpt>
      <trkpt lat="45.67809" lon="4.31659">
        <ele>446</ele>
        <time>2025-11-02T17:06:25Z</time>
      </trkpt>
      <trkpt lat="45.67827" lon="4.31664">
        <ele>447</ele>
        <time>2025-11-02T17:06:40Z</time>
      </trkpt>
      <trkpt lat="45.67844" lon="4.31664">
        <ele>448</ele>
        <time>2025-11-02T17:06:54Z</time>
      </trkpt>
      <trkpt lat="45.67863" lon="4.31665">
        <ele>450</ele>
        <time>2025-11-02T17:07:09Z</time>
      </trkpt>
      <trkpt lat="45.6792" lon="4.31663">
        <ele>454</ele>
        <time>2025-11-02T17:07:55Z</time>
      </trkpt>
      <trkpt lat="45.67936" lon="4.31661">
        <ele>456</ele>
        <time>2025-11-02T17:08:08Z</time>
      </trkpt>
      <trkpt lat="45.67954" lon="4.31654">
        <ele>458</ele>
        <time>2025-11-02T17:08:22Z</time>
      </trkpt>
      <trkpt lat="45.67976" lon="4.31652">
        <ele>461</ele>
        <time>2025-11-02T17:08:40Z</time>
      </trkpt>
      <trkpt lat="45.67987" lon="4.31653">
        <ele>462</ele>
        <time>2025-11-02T17:08:49Z</time>
      </trkpt>
      <trkpt lat="45.67995" lon="4.31652">
        <ele>463</ele>
        <time>2025-11-02T17:08:55Z</time>
      </trkpt>
      <trkpt lat="45.68001" lon="4.31649">
        <ele>464</ele>
        <time>2025-11-02T17:09:00Z</time>
      </trkpt>
      <trkpt lat="45.68006" lon="4.31637">
        <ele>464</ele>
        <time>2025-11-02T17:09:08Z</time>
      </trkpt>
      <trkpt lat="45.68007" lon="4.31626">
        <ele>464</ele>
        <time>2025-11-02T17:09:14Z</time>
      </trkpt>
      <trkpt lat="45.68004" lon="4.31602">
        <ele>462</ele>
        <time>2025-11-02T17:09:28Z</time>
      </trkpt>
      <trkpt lat="45.68" lon="4.31589">
        <ele>460</ele>
        <time>2025-11-02T17:09:36Z</time>
      </trkpt>
      <trkpt lat="45.67996" lon="4.31579">
        <ele>460</ele>
        <time>2025-11-02T17:09:42Z</time>
      </trkpt>
      <trkpt lat="45.67991" lon="4.31572">
        <ele>459</ele>
        <time>2025-11-02T17:09:48Z</time>
      </trkpt>
      <trkpt lat="45.67983" lon="4.31566">
        <ele>458</ele>
        <time>2025-11-02T17:09:55Z</time>
      </trkpt>
      <trkpt lat="45.67975" lon="4.31563">
        <ele>456</ele>
        <time>2025-11-02T17:10:02Z</time>
      </trkpt>
      <trkpt lat="45.67968" lon="4.31557">
        <ele>455</ele>
        <time>2025-11-02T17:10:08Z</time>
      </trkpt>
      <trkpt lat="45.67966" lon="4.31552">
        <ele>455</ele>
        <time>2025-11-02T17:10:12Z</time>
      </trkpt>
      <trkpt lat="45.67965" lon="4.31547">
        <ele>455</ele>
        <time>2025-11-02T17:10:15Z</time>
      </trkpt>
      <trkpt lat="45.67968" lon="4.31512">
        <ele>457</ele>
        <time>2025-11-02T17:10:34Z</time>
      </trkpt>
      <trkpt lat="45.67968" lon="4.31502">
        <ele>457</ele>
        <time>2025-11-02T17:10:40Z</time>
      </trkpt>
      <trkpt lat="45.67957" lon="4.31456">
        <ele>456</ele>
        <time>2025-11-02T17:11:07Z</time>
      </trkpt>
      <trkpt lat="45.67954" lon="4.31442">
        <ele>456</ele>
        <time>2025-11-02T17:11:15Z</time>
      </trkpt>
      <trkpt lat="45.67954" lon="4.31437">
        <ele>456</ele>
        <time>2025-11-02T17:11:18Z</time>
      </trkpt>
      <trkpt lat="45.67955" lon="4.31427">
        <ele>456</ele>
        <time>2025-11-02T17:11:24Z</time>
      </trkpt>
      <trkpt lat="45.6796" lon="4.31414">
        <ele>458</ele>
        <time>2025-11-02T17:11:32Z</time>
      </trkpt>
      <trkpt lat="45.67964" lon="4.31404">
        <ele>459</ele>
        <time>2025-11-02T17:11:39Z</time>
      </trkpt>
      <trkpt lat="45.67989" lon="4.31362">
        <ele>463</ele>
        <time>2025-11-02T17:12:09Z</time>
      </trkpt>
      <trkpt lat="45.67994" lon="4.31348">
        <ele>464</ele>
        <time>2025-11-02T17:12:18Z</time>
      </trkpt>
      <trkpt lat="45.67996" lon="4.31333">
        <ele>464</ele>
        <time>2025-11-02T17:12:27Z</time>
      </trkpt>
      <trkpt lat="45.68" lon="4.31276">
        <ele>466</ele>
        <time>2025-11-02T17:12:59Z</time>
      </trkpt>
      <trkpt lat="45.67998" lon="4.31259">
        <ele>465</ele>
        <time>2025-11-02T17:13:08Z</time>
      </trkpt>
      <trkpt lat="45.67997" lon="4.31238">
        <ele>465</ele>
        <time>2025-11-02T17:13:20Z</time>
      </trkpt>
      <trkpt lat="45.67999" lon="4.31209">
        <ele>466</ele>
        <time>2025-11-02T17:13:36Z</time>
      </trkpt>
      <trkpt lat="45.68005" lon="4.31151">
        <ele>467</ele>
        <time>2025-11-02T17:14:09Z</time>
      </trkpt>
      <trkpt lat="45.68007" lon="4.3114">
        <ele>467</ele>
        <time>2025-11-02T17:14:16Z</time>
      </trkpt>
      <trkpt lat="45.68011" lon="4.31134">
        <ele>467</ele>
        <time>2025-11-02T17:14:20Z</time>
      </trkpt>
      <trkpt lat="45.6801" lon="4.31131">
        <ele>467</ele>
        <time>2025-11-02T17:14:22Z</time>
      </trkpt>
      <trkpt lat="45.67994" lon="4.31093">
        <ele>468</ele>
        <time>2025-11-02T17:14:47Z</time>
      </trkpt>
      <trkpt lat="45.67983" lon="4.31054">
        <ele>468</ele>
        <time>2025-11-02T17:15:10Z</time>
      </trkpt>
      <trkpt lat="45.67972" lon="4.30984">
        <ele>467</ele>
        <time>2025-11-02T17:15:51Z</time>
      </trkpt>
      <trkpt lat="45.67953" lon="4.30909">
        <ele>466</ele>
        <time>2025-11-02T17:16:35Z</time>
      </trkpt>
      <trkpt lat="45.67939" lon="4.30856">
        <ele>464</ele>
        <time>2025-11-02T17:17:07Z</time>
      </trkpt>
      <trkpt lat="45.67918" lon="4.30786">
        <ele>461</ele>
        <time>2025-11-02T17:17:50Z</time>
      </trkpt>
      <trkpt lat="45.67906" lon="4.30751">
        <ele>459</ele>
        <time>2025-11-02T17:18:11Z</time>
      </trkpt>
      <trkpt lat="45.67898" lon="4.3073">
        <ele>458</ele>
        <time>2025-11-02T17:18:25Z</time>
      </trkpt>
      <trkpt lat="45.6789" lon="4.30715">
        <ele>458</ele>
        <time>2025-11-02T17:18:35Z</time>
      </trkpt>
      <trkpt lat="45.67848" lon="4.30645">
        <ele>455</ele>
        <time>2025-11-02T17:19:27Z</time>
      </trkpt>
      <trkpt lat="45.67817" lon="4.30589">
        <ele>454</ele>
        <time>2025-11-02T17:20:07Z</time>
      </trkpt>
      <trkpt lat="45.67804" lon="4.30558">
        <ele>453</ele>
        <time>2025-11-02T17:20:27Z</time>
      </trkpt>
      <trkpt lat="45.67781" lon="4.30491">
        <ele>451</ele>
        <time>2025-11-02T17:21:09Z</time>
      </trkpt>
      <trkpt lat="45.67771" lon="4.30459">
        <ele>452</ele>
        <time>2025-11-02T17:21:29Z</time>
      </trkpt>
      <trkpt lat="45.67758" lon="4.3042">
        <ele>454</ele>
        <time>2025-11-02T17:21:53Z</time>
      </trkpt>
      <trkpt lat="45.67751" lon="4.30397">
        <ele>454</ele>
        <time>2025-11-02T17:22:07Z</time>
      </trkpt>
      <trkpt lat="45.67748" lon="4.30381">
        <ele>454</ele>
        <time>2025-11-02T17:22:16Z</time>
      </trkpt>
      <trkpt lat="45.67748" lon="4.30364">
        <ele>454</ele>
        <time>2025-11-02T17:22:25Z</time>
      </trkpt>
      <trkpt lat="45.67754" lon="4.30306">
        <ele>453</ele>
        <time>2025-11-02T17:22:58Z</time>
      </trkpt>
      <trkpt lat="45.67754" lon="4.30293">
        <ele>452</ele>
        <time>2025-11-02T17:23:06Z</time>
      </trkpt>
      <trkpt lat="45.67752" lon="4.30284">
        <ele>452</ele>
        <time>2025-11-02T17:23:11Z</time>
      </trkpt>
      <trkpt lat="45.67745" lon="4.3027">
        <ele>451</ele>
        <time>2025-11-02T17:23:20Z</time>
      </trkpt>
      <trkpt lat="45.67739" lon="4.30261">
        <ele>450</ele>
        <time>2025-11-02T17:23:27Z</time>
      </trkpt>
      <trkpt lat="45.67718" lon="4.30241">
        <ele>448</ele>
        <time>2025-11-02T17:23:48Z</time>
      </trkpt>
      <trkpt lat="45.6771" lon="4.30229">
        <ele>447</ele>
        <time>2025-11-02T17:23:57Z</time>
      </trkpt>
      <trkpt lat="45.67706" lon="4.30216">
        <ele>447</ele>
        <time>2025-11-02T17:24:05Z</time>
      </trkpt>
      <trkpt lat="45.67706" lon="4.30201">
        <ele>446</ele>
        <time>2025-11-02T17:24:13Z</time>
      </trkpt>
      <trkpt lat="45.67705" lon="4.30131">
        <ele>444</ele>
        <time>2025-11-02T17:24:52Z</time>
      </trkpt>
      <trkpt lat="45.67706" lon="4.30099">
        <ele>443</ele>
        <time>2025-11-02T17:25:10Z</time>
      </trkpt>
      <trkpt lat="45.67728" lon="4.30085">
        <ele>442</ele>
        <time>2025-11-02T17:25:30Z</time>
      </trkpt>
      <trkpt lat="45.67748" lon="4.30095">
        <ele>443</ele>
        <time>2025-11-02T17:25:47Z</time>
      </trkpt>
    </trkseg>
  </trk>
</gpx>